.

Date Time Name Race Sex Age Charge Charge Description Case ID
6/13/2016 0007 WILLIFORD, JOHN DAVID JR W M 22 18.2-248.1:1[F] POSSESSION WITH INTENT TO DISTRIBUTE SYNTHETIC CANNABINOIDS 2016007848
6/13/2016 0007 WILLIFORD, JOHN DAVID JR W M 22 18.2-388 PUBLIC SWEARING OR INTOXICATION 2016007848
6/13/2016 0604 NEWBY, DON CORNELIUS B M 36 18.2-57.2|[F] ASSAULT & BATTERY - FAMILY MEMBER (3RD OFFENSE) 2016007854
6/13/2016 0645 BLOUNT, LATISHA KATRICE B F 34 18.2-57.2|[M] ASSAULT & BATTERY - FAMILY MEMBER 2016007854
6/13/2016 0726 COKER, MICHAEL B M 58 18.2-32|[F][A] MURDER - FIRST DEGREE 2016007851
6/13/2016 0922 WILLIAMS, TEVON JAMES B M 21 18.2-456 CONTEMPT OF COURT
6/13/2016 0943 FERGUSON, LORENZO SR B M 61 19.2-306|[F] REVOCATION OF SUSPENDED SENTENCE AND PROBATION
6/13/2016 0947 HINES, BRITTANY DENISE B F 23 18.2-137|[M] DESTRUCTION OF PROPERTY, GENERAL 2016007107
6/13/2016 1000 DUNSTON, JEREMY JEROME B M 26 18.2-308.2:2|[F] FIREARM PURCHASE OR DEALER VIOLATION
6/13/2016 1003 PHILLIPS, DEMARIO ANTHONY B M 37 18.2-102|[F] UNAUTHORIZED USE OF VEHICLE, BOAT OR ANIMAL
6/13/2016 1203 MANLEY, RICHIE EARL B M 40 18.2-456 CONTEMPT OF COURT 9999237971
6/13/2016 1208 WILLIAMS, DON RICO B M 28 19.2-123 VIOLATE CONDITION OF RELEASE
6/13/2016 1231 HARRELL, BRANDI KAELA W F 24 18.2-456 CONTEMPT OF COURT
6/13/2016 1243 DIXON, CRAIG VINCENT B M 48 18.2-119 TRESPASSING 2016007868
6/13/2016 1248 STEVENSON, LAMONT EUGENE B M 40 18.2-57.2|[M] ASSAULT & BATTERY - FAMILY MEMBER 2016007858
6/13/2016 1248 STEVENSON, LAMONT EUGENE B M 40 18.2-57.2|[M] ASSAULT & BATTERY - FAMILY MEMBER 2016007858
6/13/2016 1248 DIXON, CRAIG VINCENT B M 48 18.2-460|[M] OBSTRUCTING JUSTICE
6/13/2016 1517 FORD, JOSHUA RAY W M 31 19.2-123 VIOLATE CONDITION OF RELEASE
6/13/2016 1614 PYE, VERNITA MARSHALL B F 34 18.2-456 CONTEMPT OF COURT
6/13/2016 1733 WILLIAMS, PHILLIP WAYNE JR B M 45 19.2-306|[F] REVOCATION OF SUSPENDED SENTENCE AND PROBATION
6/13/2016 1733 WILLIAMS, PHILLIP WAYNE JR B M 45 46.2-357|[F] OPERATE MOTOR VEH - HABITUAL OFFENDER
6/13/2016 1942 EDMONDS, JAMES ARTHUR B M 53 18.2-456 CONTEMPT OF COURT 9999238251
6/13/2016 2000 MORGAN, COREY JARELLE B M 31 18.2-456 CONTEMPT OF COURT
6/13/2016 2000 MORGAN, COREY JARELLE B M 31 19.2-128|[M] FAIL TO APPEAR ON MISDEMEANOR CHARGE
6/13/2016 2000 MORGAN, COREY JARELLE B M 31 19.2-128|[M] FAIL TO APPEAR ON MISDEMEANOR CHARGE
6/13/2016 2000 MORGAN, COREY JARELLE B M 31 18.2-95 GRAND LARCENY
6/13/2016 2000 MORGAN, COREY JARELLE B M 31 18.2-95 GRAND LARCENY
6/13/2016 2000 MORGAN, COREY JARELLE B M 31 18.2-192 CREDIT CARD THEFT
6/13/2016 2000 MORGAN, COREY JARELLE B M 31 18.2-192 CREDIT CARD THEFT
6/13/2016 2000 MORGAN, COREY JARELLE B M 31 18.2-195|[F] CREDIT CARD FRAUD
6/13/2016 2000 MORGAN, COREY JARELLE B M 31 18.2-178|[F] OBTAINING MONEY BY FALSE PRETENSES
6/13/2016 2000 MORGAN, COREY JARELLE B M 31 18.2-178|[F] OBTAINING MONEY BY FALSE PRETENSES
6/13/2016 2000 MORGAN, COREY JARELLE B M 31 18.2-178|[F] OBTAINING MONEY BY FALSE PRETENSES
6/13/2016 2330 SMITH, VINCENT ANTONIO SR B M 49 24-258 PUBLIC DRUNKENNESS 2016007894
6/13/2016 2330 SMITH, VINCENT ANTONIO SR B M 49 18.2-96|[F] LARCENY OR THEFT (3RD OR SUBSQ OFFENSE) 2016007894
6/13/2016 2330 SMITH, VINCENT ANTONIO SR B M 49 18.2-250.1 POSSESSION OF MARIJUANA 2016007894
6/13/2016 8:56:00 AM 0856 SANTIAGO, DAVIS JENEE II B M 29 18.2-427 PROFANE, THREATENING LANGUAGE OVER PUBLIC AIRWAY
6/14/2016 0004 ALSTON, TIMOTHY B M 29 46.2-301 DRIVING W/SUSPENDED OR REVOKED LICENSE
6/14/2016 0004 ALSTON, TIMOTHY B M 29 18.2-266 DRIVING UNDER THE INFLUENCE OF ALCOHOL
6/14/2016 0037 RIVERA, MELISSA LATISHA B F 28 18.2-57.2|[M] ASSAULT & BATTERY - FAMILY MEMBER 2016007899
6/14/2016 0213 MILLS, JOHN LUTHER JR B M 25 18.2-456 CONTEMPT OF COURT
6/14/2016 0213 MILLS, JOHN LUTHER JR B M 25 19.2-306|[F] REVOCATION OF SUSPENDED SENTENCE AND PROBATION
6/14/2016 0713 GIBSON, DARRICK MARQUA B M 23 46.2-301 DRIVING W/SUSPENDED OR REVOKED LICENSE 2016007903
6/14/2016 0713 GIBSON, DARRICK MARQUA B M 23 46.2-817|[M] ELUDING POLICE 2016007903
6/14/2016 0713 GIBSON, DARRICK MARQUA B M 23 46.2-1172 INSPECTION STICKER VIOLATION 2016007903
6/14/2016 0713 GIBSON, DARRICK MARQUA B M 23 46.2-613|[W] STATE LICENSE PLATES - WRONG VEHICLE 2016007903
6/14/2016 0713 GIBSON, DARRICK MARQUA B M 23 46.2-1003 USE UNSAFE EQUIPMENT 2016007903
6/14/2016 0713 GIBSON, DARRICK MARQUA B M 23 46.2-613 VEHICLE REGISTRATION VIOLATIONS 2016007903
6/14/2016 0940 MORGAN, COREY JARELLE B M 31 18.2-195|[F] CREDIT CARD FRAUD
6/14/2016 1152 LILLEY, THOMAS MITCHELL W M 25 18.2-178|[F] OBTAINING MONEY BY FALSE PRETENSES 2016003178
6/14/2016 1152 LILLEY, THOMAS MITCHELL W M 25 18.2-178|[F] OBTAINING MONEY BY FALSE PRETENSES 2016003178
6/14/2016 1152 LILLEY, THOMAS MITCHELL W M 25 18.2-178|[F] OBTAINING MONEY BY FALSE PRETENSES 2016003178
6/14/2016 1152 LILLEY, THOMAS MITCHELL W M 25 18.2-178|[F] OBTAINING MONEY BY FALSE PRETENSES 2016003178
6/14/2016 1152 LILLEY, THOMAS MITCHELL W M 25 18.2-178|[F] OBTAINING MONEY BY FALSE PRETENSES 2016003178
6/14/2016 1152 LILLEY, THOMAS MITCHELL W M 25 18.2-178|[F] OBTAINING MONEY BY FALSE PRETENSES 2016003178
6/14/2016 1152 LILLEY, THOMAS MITCHELL W M 25 18.2-178|[F] OBTAINING MONEY BY FALSE PRETENSES 2016003178
6/14/2016 1152 LILLEY, THOMAS MITCHELL W M 25 18.2-178|[F] OBTAINING MONEY BY FALSE PRETENSES 2016003178
6/14/2016 1152 LILLEY, THOMAS MITCHELL W M 25 18.2-178|[F] OBTAINING MONEY BY FALSE PRETENSES 2016003178
6/14/2016 1152 LILLEY, THOMAS MITCHELL W M 25 18.2-108.01 STOLEN PROPERTY: W/ INTENT TO SELL, LARCENY>$200 2016003178
6/14/2016 1152 LILLEY, THOMAS MITCHELL W M 25 18.2-95 GRAND LARCENY 2016003178
6/14/2016 1200 MURPHY, TORREY DARNELL B M 39 PB-15 PAROLE BOARD WARRANT - PB15
6/14/2016 1559 ORTIZ, TRANDON ANASTACIO B M 22 18.2-456 CONTEMPT OF COURT
6/14/2016 1613 WIGGINS, RYAN EARL B M 19 18.2-95 GRAND LARCENY 2016005006
6/14/2016 1818 WAPLES, EDWARD ROY SR B M 60 19.2-128|[M] FAIL TO APPEAR ON MISDEMEANOR CHARGE
6/14/2016 1955 WASHINGTON, VICTOR LAMAR II B M 20 46.2-865 RECKLESS DRIVING - DRAG RACING [CLASS 1 2016007685
6/14/2016 2108 TAYLOR, DESTINY RENEE B F 18 18.2-119 TRESPASSING 2016007946
6/14/2016 2108 MUSTIN, EMMANUEL DEWAYNE JR B M 21 18.2-119 TRESPASSING 2016007946
6/14/2016 2200 RIDDICK, JULIAN JEROME B M 26 4.1-308 DRINKING ALCOHOL IN PUBLIC
6/14/2016 2200 RIDDICK, JULIAN JEROME B M 26 18.2-308.1:1 FIREARM VIOLATION - AFTER ACQUITTAL BY INSANITY 2016007952
6/14/2016 11:35:00 AM 1135 SPELLER, CHYNNA B F 18 18.2-137|[M] DESTRUCTION OF PROPERTY, GENERAL
6/14/2016 11:35:00 AM 1135 SPELLER, CHYNNA B F 18 18.2-57|[M] ASSAULT & BATTERY
6/14/2016 12:03:00 PM 1203 JONES, HERBERT LEE III B M 30 18.2-51.6[F] STRANGULATION OF ANOTHER 2016007886
6/14/2016 4:15:00 PM 1615 FAULKNER, KARA MARIE W F 25 18.2-96|[M] PETIT LARCENY 2016007937
6/14/2016 5:19:00 PM 1719 DRAUGHN, TIMOTHY SYLVESTER SR B M 52 19.2-128|[M] FAIL TO APPEAR ON MISDEMEANOR CHARGE
6/15/2016 0043 HARRELL, JAMES ALLAN SR W M 34 24-258 PUBLIC DRUNKENNESS 2016007954
6/15/2016 0043 HARRELL, JAMES ALLAN SR W M 34 4.1-305 UNLAWFUL PURCHASE OR POSSESS ALCOHOLIC BEVERAGE 2016007954
6/15/2016 0045 HODGES, LAQUINNE ARKINA B F 30 18.2-456 CONTEMPT OF COURT
6/15/2016 0100 JACQUES, KAREN SUE W F 44 18.2-57.2|[M] ASSAULT & BATTERY - FAMILY MEMBER 2016007956
6/15/2016 0230 FUNAI, ROBERT WOODROW 3RD W M 47 18.2-108.01 STOLEN PROPERTY: W/ INTENT TO SELL, LARCENY>$200
6/15/2016 0230 FUNAI, ROBERT WOODROW 3RD W M 47 18.2-119 TRESPASSING
6/15/2016 0329 FULLERTON, CHARLES EUGENE III W M 60 18.2-57.2|[M] ASSAULT & BATTERY - FAMILY MEMBER 2016007956
6/15/2016 0400 RODGERS, ALEXANDER LEON B M 27 19.2-306|[F] REVOCATION OF SUSPENDED SENTENCE AND PROBATION
6/15/2016 0400 RODGERS, ALEXANDER LEON B M 27 19.2-306|[F] REVOCATION OF SUSPENDED SENTENCE AND PROBATION
6/15/2016 0436 TABRON, GLEN ROGERS JR B M 38 18.2-119 TRESPASSING 2016007659
6/15/2016 0436 TABRON, GLEN ROGERS JR B M 38 24-258 PUBLIC DRUNKENNESS 2016007959
6/15/2016 1223 MADDOCK, THOMAS RYAN W M 28 18.2-60|[F] THREATS OF DEATH OR BODILY INJURY BY LETTER 2016007409
6/15/2016 1245 TYSON, JERMAINE EMMANUEL B M 21 18.2-250|[F] POSSESSION OF CONTROLLED SUBSTANCES 2015016415
6/15/2016 1344 DIXON, CLIFTON JR B M 56 18.2-456 CONTEMPT OF COURT
6/15/2016 1402 ELDRIDGE, DALE RONALD JR W M 46 PB-14 PAROLE BOARD WARRANT - PB14 9999-237936
6/15/2016 1451 ALTENBACH, ERIC ARTHUR W M 19 18.2-137|[M] DESTRUCTION OF PROPERTY, GENERAL 2016005667
6/15/2016 1451 ALTENBACH, ERIC ARTHUR W M 19 18.2-147 ENTERING OR SETTING IN MOTION A VEHICLE 2016005667
6/15/2016 1538 BLOW, QUAMISHA DANIELLE ANTOIN B F 23 19.2-128|[M] FAIL TO APPEAR ON MISDEMEANOR CHARGE
6/15/2016 1538 BLOW, QUAMISHA DANIELLE ANTOIN B F 23 19.2-128|[M] FAIL TO APPEAR ON MISDEMEANOR CHARGE
6/15/2016 1625 SMITH, ELIZABETH ANN W F 30 18.2-369|[M] ABUSE, NEGLECT OF INCAPACITATED ADULT -1ST OFF 2016007969
6/15/2016 1625 SMITH, ELIZABETH ANN W F 30 18.2-369|[M] ABUSE, NEGLECT OF INCAPACITATED ADULT -1ST OFF 2016007969
6/15/2016 1625 SMITH, ELIZABETH ANN W F 30 18.2-369|[F] ABUSE, NEGLECT OF INCAPACITATED ADULT -SUBSQ OFF 2016007969
6/15/2016 1625 SMITH, ELIZABETH ANN W F 30 18.2-51.6[F] STRANGULATION OF ANOTHER 2016007969
6/15/2016 1625 SMITH, ELIZABETH ANN W F 30 18.2-51 FELONIOUS ASSAULT 2016007969
6/15/2016 1716 BRYANT, HUNTER ELLIOTT W M 24 19.2-306|[M] REVOCATION OF SUSPENDED SENTENCE AND PROBATION
6/15/2016 1725 MCNAIR, BRITNEY MONE B F 28 18.2-119 TRESPASSING
6/15/2016 1750 HARDMAN, KIMBERLY DESHON B F 22 18.2-186.3 IDENTITY THEFT: USE TO AVOID ARREST
6/15/2016 1816 PITTMAN, TERRY WAYNE W M 48 18.2-456 CONTEMPT OF COURT
6/15/2016 1843 GEE, ROMONE LASHAWN B M 37 18.2-308.2 POSSESS, TRANSPORT FIREARMS BY CONVICTED FELONS 2016007502
6/15/2016 1843 GEE, ROMONE LASHAWN B M 37 18.2-248|[F] MANUF, SALE, POSSESSION CONTROLLED SUBSTANCE 2016007502
6/15/2016 1843 GEE, ROMONE LASHAWN B M 37 18.2-248|[F] MANUF, SALE, POSSESSION CONTROLLED SUBSTANCE 2016007502
6/15/2016 2003 BRYANT, JAMES EARL JR B M 47 18.2-456 CONTEMPT OF COURT
6/15/2016 2003 BRYANT, JAMES EARL JR B M 47 18.2-456 CONTEMPT OF COURT
6/15/2016 2022 WILSON, MARQUE JAMAR B M 33 18.2-248|[F] MANUF, SALE, POSSESSION CONTROLLED SUBSTANCE 2015013829
6/15/2016 2022 WILSON, MARQUE JAMAR B M 33 18.2-248|[F] MANUF, SALE, POSSESSION CONTROLLED SUBSTANCE 2015013829
6/15/2016 2022 WILSON, MARQUE JAMAR B M 33 18.2-255.2|[F] SALE OF DRUGS ON OR NEAR SCHOOL PROPERTY, LIBRARY 2015013829
6/15/2016 2022 WILSON, MARQUE JAMAR B M 33 18.2-255.2|[F] SALE OF DRUGS ON OR NEAR SCHOOL PROPERTY, LIBRARY 2016007983
6/15/2016 2022 WILSON, MARQUE JAMAR B M 33 18.2-248|[F] MANUF, SALE, POSSESSION CONTROLLED SUBSTANCE 2016007983
6/15/2016 2022 WILSON, MARQUE JAMAR B M 33 18.2-248|[F] MANUF, SALE, POSSESSION CONTROLLED SUBSTANCE 2016007983
6/15/2016 2022 WILSON, MARQUE JAMAR B M 33 46.2-817|[F] ELUDING POLICE - ENDANGER PERSONS OR POLICE CAR
6/15/2016 2022 WILSON, MARQUE JAMAR B M 33 46.2-862 RECKLESS DRIVING - EXCESSIVE SPEED
6/15/2016 2022 WILSON, MARQUE JAMAR B M 33 18.2-248|[F] MANUF, SALE, POSSESSION CONTROLLED SUBSTANCE
6/15/2016 2022 WILSON, MARQUE JAMAR B M 33 18.2-137|[F] DESTRUCTION OF PROPERTY GENERAL -VALUE >=$1000
6/15/2016 2022 WILSON, MARQUE JAMAR B M 33 18.2-250|[F] POSSESSION OF CONTROLLED SUBSTANCES
6/15/2016 2140 TURNER, LAWAYNE JERMAINE B M 31 18.2-250.1 POSSESSION OF MARIJUANA 2016008001
6/15/2016 2141 DAVIS, MELISSA JANE W F 32 19.2-99|[F] FUGITIVE FROM JUSTICE 2016007987
6/15/2016 2141 DAVIS, MELISSA JANE W F 32 18.2-95 GRAND LARCENY 2016007987
6/15/2016 2310 EURE, TIQ`UAN DERON B M 23 18.2-119 TRESPASSING
6/15/2016 2313 HOWARD, SHAUN ANTHONY B M 27 18.2-456 CONTEMPT OF COURT
6/15/2016 2321 BENTON, SHARON EVETTE B F 35 24-258 PUBLIC DRUNKENNESS 2016008000
6/15/2016 2322 PINILLA, MARIA AZZENETH W F 58 18.2-57.2|[M] ASSAULT & BATTERY - FAMILY MEMBER 2016007428
6/15/2016 10:20:00 AM 1020 BROWN, MICHAEL ANTHONY SR B M 55 18.2-456 CONTEMPT OF COURT
6/16/2016 0001 EURE, TIQ`UAN DERON B M 23 19.2-306|[M] REVOCATION OF SUSPENDED SENTENCE AND PROBATION
6/16/2016 0010 WHITAKER, DESHAWN RAY B M 21 46.2-896 HIT & RUN - UNATTENDED VEH
6/16/2016 0010 WHITAKER, DESHAWN RAY B M 21 46.2-896 HIT & RUN - UNATTENDED VEH
6/16/2016 0101 BROWN, ARTHUR THOMPSON B M 36 18.2-456 CONTEMPT OF COURT
6/16/2016 0101 BROWN, ARTHUR THOMPSON B M 36 19.2-128|[F] FAIL TO APPEAR ON FELONY CHARGE
6/16/2016 0101 BROWN, ARTHUR THOMPSON B M 36 19.2-128|[F] FAIL TO APPEAR ON FELONY CHARGE
6/16/2016 0101 BROWN, ARTHUR THOMPSON B M 36 19.2-128|[F] FAIL TO APPEAR ON FELONY CHARGE
6/16/2016 0200 HARRIS, DEMETRIC MARQUIS B M 35 18.2-266 DRIVING UNDER THE INFLUENCE OF ALCOHOL 2016008005
6/16/2016 0200 HARRIS, DEMETRIC MARQUIS B M 35 18.2-268.3 REFUSE BLOOD/BREATH TEST 2016008005
6/16/2016 0350 SALYER, THOMAS JASPER W M 42 19.2-128|[F] FAIL TO APPEAR ON FELONY CHARGE
6/16/2016 0350 SALYER, THOMAS JASPER W M 42 19.2-128|[F] FAIL TO APPEAR ON FELONY CHARGE
6/16/2016 0803 ASKEW, GERRY CARLTON JR B M 34 46.2-894 ACCIDENTS - HIT AND RUN RESULTING IN INJURY AND/OR DEATH [FE 2016008006
6/16/2016 0803 ASKEW, GERRY CARLTON JR B M 34 46.2-896 HIT & RUN - UNATTENDED VEH 2016008006
6/16/2016 0803 ASKEW, GERRY CARLTON JR B M 34 18.2-266|[M] DRIVING UNDER THE INFLUENCE OF ALCOHOL 2016008006
6/16/2016 0803 ASKEW, GERRY CARLTON JR B M 34 18.2-268.3 REFUSE BLOOD/BREATH TEST 2016008006
6/16/2016 0915 MAINS, ADAM MICHAEL W M 22 18.2-57|[M] ASSAULT & BATTERY 2016008011
6/16/2016 0932 KOONCE, ERICA RENEE B F 46 18.2-57|[M] ASSAULT & BATTERY
6/16/2016 0951 WOODWORTH, JESSICA ROSE W F 26 4-31 DOG AT LARGE
6/16/2016 0956 DAVIS, DAVID MACARTHUR B M 41 18.2-51 FELONIOUS ASSAULT 2016007928
6/16/2016 0956 DAVIS, DAVID MACARTHUR B M 41 18.2-58 ROBBERY 2016007928
6/16/2016 1127 ELLIS, DOROTHEA ANTOINETTE B F 52 19.2-306|[M] REVOCATION OF SUSPENDED SENTENCE AND PROBATION
6/16/2016 1127 ELLIS, DOROTHEA ANTOINETTE B F 52 19.2-306|[M] REVOCATION OF SUSPENDED SENTENCE AND PROBATION
6/16/2016 1255 GORE, JOHNNIE CLEVELAND B M 52 16.1-278.16 FAIL TO COMPLY WITH SUPPORT OBLIGATIONS
6/16/2016 1320 SMITH, CLARK RICHARD JR B M 58 19.2-306|[F] REVOCATION OF SUSPENDED SENTENCE AND PROBATION
6/16/2016 1447 ADAMSON, JAMES EMANUEL B M 46 18.2-456 CONTEMPT OF COURT
6/16/2016 1729 WILSON, MARQUE JAMAR B M 33 18.2-137|[F] DESTRUCTION OF PROPERTY GENERAL -VALUE >=$1000
6/16/2016 1729 WILSON, MARQUE JAMAR B M 33 18.2-250|[F] POSSESSION OF CONTROLLED SUBSTANCES
6/16/2016 1729 WILSON, MARQUE JAMAR B M 33 18.2-248|[F] MANUF, SALE, POSSESSION CONTROLLED SUBSTANCE
6/16/2016 1731 WINFIELD, CHIQUITA MONEKE B F 24 18.2-57.2|[M] ASSAULT & BATTERY - FAMILY MEMBER 2016008045
6/16/2016 1731 WINFIELD, CHIQUITA MONEKE B F 24 18.2-479|[M] ESCAPE WITHOUT FORCE BY MISDEMEANANT 2016008045
6/16/2016 1731 WINFIELD, CHIQUITA MONEKE B F 24 18.2-137|[M] DESTRUCTION OF PROPERTY, GENERAL
6/16/2016 1733 SALYER, THOMAS JASPER W M 42 18.2-456 CONTEMPT OF COURT
6/16/2016 1733 SALYER, THOMAS JASPER W M 42 18.2-456 CONTEMPT OF COURT
6/16/2016 1733 SALYER, THOMAS JASPER W M 42 19.2-128|[M] FAIL TO APPEAR ON MISDEMEANOR CHARGE
6/16/2016 1733 SALYER, THOMAS JASPER W M 42 18.2-456 CONTEMPT OF COURT
6/16/2016 1733 SALYER, THOMAS JASPER W M 42 19.2-123 VIOLATE CONDITION OF RELEASE
6/16/2016 1733 SALYER, THOMAS JASPER W M 42 18.2-456 CONTEMPT OF COURT
6/16/2016 2006 PARKER, MARIYON DONTE B M 28 18.2-172 FORGING, UTTERING 2016000399
6/16/2016 2006 PARKER, MARIYON DONTE B M 28 18.2-178|[F] OBTAINING MONEY BY FALSE PRETENSES 2016000399
6/16/2016 2040 POPE, DENNIS JAY B M 51 24-258 PUBLIC DRUNKENNESS 2016008062
6/16/2016 2112 ATKINS, CHRISTOPHER LAMAR B M 24 18.2-456 CONTEMPT OF COURT
6/16/2016 2243 SCHEPP, MORGAN LEE W M 30 19.2-128|[M] FAIL TO APPEAR ON MISDEMEANOR CHARGE
6/16/2016 2330 ANDERSON, JERRIKA DA BRUSHA B F 35 18.2-388 PUBLIC SWEARING OR INTOXICATION
6/16/2016 4:30:00 PM 1630 LAWRENCE, DONNA ELIZABETH W F 26 18.2-456 CONTEMPT OF COURT 9999238256
6/16/2016 9:20:00 PM 2120 MOBLEY, TRACIE MICHELLE W F 40 18.2-250|[F] POSSESSION OF CONTROLLED SUBSTANCES 2015004925
6/16/2016 9:20:00 PM 2120 MOBLEY, TRACIE MICHELLE W F 40 18.2-96|[M] PETIT LARCENY 2015004925
6/16/2016 9:20:00 PM 2120 MOBLEY, TRACIE MICHELLE W F 40 18.2-456 CONTEMPT OF COURT 9999238091
6/17/2016 0040 MAY, AMBER LEE CARROLL W F 33 18.2-178|[M] OBTAINING MONEY BY FALSE PRETENSES 2016007321
6/17/2016 0040 MAY, AMBER LEE CARROLL W F 33 18.2-178|[M] OBTAINING MONEY BY FALSE PRETENSES 2016007321
6/17/2016 0040 MAY, AMBER LEE CARROLL W F 33 18.2-178|[M] OBTAINING MONEY BY FALSE PRETENSES 2016007321
6/17/2016 0040 MAY, AMBER LEE CARROLL W F 33 18.2-178|[M] OBTAINING MONEY BY FALSE PRETENSES 2016007321
6/17/2016 0040 MAY, AMBER LEE CARROLL W F 33 18.2-108.01 STOLEN PROPERTY: W/ INTENT TO SELL, LARCENY>$200 2016007321
6/17/2016 0040 MAY, AMBER LEE CARROLL W F 33 18.2-95 GRAND LARCENY 2016007321
6/17/2016 0040 MAY, AMBER LEE CARROLL W F 33 18.2-95 GRAND LARCENY 2016007321
6/17/2016 0040 MAY, AMBER LEE CARROLL W F 33 19.2-128|[F] FAIL TO APPEAR ON FELONY CHARGE
6/17/2016 0040 MAY, AMBER LEE CARROLL W F 33 19.2-123 VIOLATE CONDITION OF RELEASE
6/17/2016 0040 MAY, AMBER LEE CARROLL W F 33 18.2-178|[M] OBTAINING MONEY BY FALSE PRETENSES 2016007321
6/17/2016 0040 MAY, AMBER LEE CARROLL W F 33 18.2-178|[M] OBTAINING MONEY BY FALSE PRETENSES 2016007321
6/17/2016 0040 MAY, AMBER LEE CARROLL W F 33 18.2-178|[M] OBTAINING MONEY BY FALSE PRETENSES 2016007321
6/17/2016 0040 MAY, AMBER LEE CARROLL W F 33 18.2-178|[M] OBTAINING MONEY BY FALSE PRETENSES 2016007321
6/17/2016 0308 PIERCE, ERNEST LE DESMONDS B M 31 19.2-303.3 VIOLATION OF COMMUNITY CORRECTIONS PROGRAM
6/17/2016 0308 SALMON, SEAN BRADLEY W M 27 18.2-95 GRAND LARCENY 2016007321
6/17/2016 0308 SALMON, SEAN BRADLEY W M 27 18.2-95 GRAND LARCENY 2016007321
6/17/2016 0308 SALMON, SEAN BRADLEY W M 27 18.2-108.1 RECEIPT OF STOLEN FIREARM 2016007321
6/17/2016 0308 SALMON, SEAN BRADLEY W M 27 18.2-178|[M] OBTAINING MONEY BY FALSE PRETENSES 2016007321
6/17/2016 0308 SALMON, SEAN BRADLEY W M 27 18.2-178|[M] OBTAINING MONEY BY FALSE PRETENSES 2016007321
6/17/2016 0308 SALMON, SEAN BRADLEY W M 27 18.2-178|[M] OBTAINING MONEY BY FALSE PRETENSES 2016007321
6/17/2016 0308 SALMON, SEAN BRADLEY W M 27 18.2-178|[M] OBTAINING MONEY BY FALSE PRETENSES 2016007321
6/17/2016 0308 SALMON, SEAN BRADLEY W M 27 18.2-178|[M] OBTAINING MONEY BY FALSE PRETENSES 2016007321
6/17/2016 1147 EDWARDS, BRIAN ORLANDO B M 44 19.2-128|[M] FAIL TO APPEAR ON MISDEMEANOR CHARGE
6/17/2016 1147 EDWARDS, BRIAN ORLANDO B M 44 18.2-95 GRAND LARCENY
6/17/2016 1147 EDWARDS, BRIAN ORLANDO B M 44 18.2-95 GRAND LARCENY
6/17/2016 1147 EDWARDS, BRIAN ORLANDO B M 44 18.2-95 GRAND LARCENY
6/17/2016 1147 EDWARDS, BRIAN ORLANDO B M 44 18.2-95 GRAND LARCENY
6/17/2016 1147 EDWARDS, BRIAN ORLANDO B M 44 18.2-95 GRAND LARCENY
6/17/2016 1348 WINSTON, MARQUISE LLOYD B M 25 18.2-102|[F] UNAUTHORIZED USE OF VEHICLE, BOAT OR ANIMAL
6/17/2016 1348 WINSTON, MARQUISE LLOYD B M 25 18.2-51.6[F] STRANGULATION OF ANOTHER
6/17/2016 1348 WINSTON, MARQUISE LLOYD B M 25 18.2-57.2|[M] ASSAULT & BATTERY - FAMILY MEMBER
6/17/2016 1356 EPPS, JAMON DONTAE B M 26 19.2-306|[F] REVOCATION OF SUSPENDED SENTENCE AND PROBATION
6/17/2016 1456 MCKAY, GILBERT W M 65 24-258 PUBLIC DRUNKENNESS 2016008087
6/17/2016 1523 KEEVER, SUELLEN ANNE W F 59 24-258 PUBLIC DRUNKENNESS 2016008087
6/17/2016 1533 PEELE, JOSHUA TYLER W M 42 19.2-306|[M] REVOCATION OF SUSPENDED SENTENCE AND PROBATION
6/17/2016 1730 DAVIDSON, JOHN W M 33 18.2-248.1|[M] SALE, DISTRIBUTE MARIJUANA
6/17/2016 1730 DAVIDSON, JOHN W M 33 18.2-371 CONTRIBUTING TO THE DELINQUENCY OF A MIN
6/17/2016 1739 COLEY, LEONARD JR B M 54 18.2-266|[M] DRIVING UNDER THE INFLUENCE OF ALCOHOL 2016008093
6/17/2016 1945 COOK, EDWARD JOSEPH JR W M 34 18.2-456 CONTEMPT OF COURT 9999238117
6/17/2016 2200 HARGROVE, JORDAN SHAQUILLE B M 23 16-5 LITTERING
6/17/2016 2237 MADISON, NORMAN LEO B M 63 24-258 PUBLIC DRUNKENNESS 2016008114
6/17/2016 2341 SINGLETON, THOMAS LEROY JR W M 57 18.2-102|[F] UNAUTHORIZED USE OF VEHICLE, BOAT OR ANIMAL 2013013054
6/17/2016 2341 SINGLETON, THOMAS LEROY JR W M 57 19.2-128|[F] FAIL TO APPEAR ON FELONY CHARGE
6/17/2016 2341 SINGLETON, THOMAS LEROY JR W M 57 19.2-128|[F] FAIL TO APPEAR ON FELONY CHARGE
6/17/2016 2341 SINGLETON, THOMAS LEROY JR W M 57 19.2-128|[F] FAIL TO APPEAR ON FELONY CHARGE
6/17/2016 2341 SINGLETON, THOMAS LEROY JR W M 57 19.2-128|[F] FAIL TO APPEAR ON FELONY CHARGE
6/17/2016 9:50:00 AM 0950 EISON, CHRISTIAN RYAN B M 18 18.2-456 CONTEMPT OF COURT
6/17/2016 1:43:00 PM 1343 LINDSEY, LISA D W F 52 18.2-96|[M] PETIT LARCENY 2016008091
6/18/2016 0100 BASS, ROBERT SHANE W M 23 19.2-306|[F] REVOCATION OF SUSPENDED SENTENCE AND PROBATION
6/18/2016 0200 WILSON, WILLIE JAMES II B M 42 4.1-308 DRINKING ALCOHOL IN PUBLIC
6/18/2016 0200 WILSON, WILLIE JAMES II B M 42 18.2-119 TRESPASSING
6/18/2016 0232 CROSS, COURTNEY L B F 26 18.2-266|[M] DRIVING UNDER THE INFLUENCE OF ALCOHOL 2016008126
6/18/2016 0310 WILSON, WILLIE JAMES II B M 42 18.2-456 CONTEMPT OF COURT
6/18/2016 0320 SNOWDEN, MICHAEL LAVONN B M 44 18.2-91|[F] BREAKING & ENTER W/INT TO COMMIT FELONY 2016008125
6/18/2016 0320 SNOWDEN, MICHAEL LAVONN B M 44 18.2-104 LARCENY OR THEFT (3RD OR SUBSQ OFFENSE) 2016008125
6/18/2016 0320 SNOWDEN, MICHAEL LAVONN B M 44 18.2-479.1 RESISTING ARREST 2016008125
6/18/2016 0320 SNOWDEN, MICHAEL LAVONN B M 44 18.2-137|[M] DESTRUCTION OF PROPERTY, GENERAL 2016008125
6/18/2016 0320 SNOWDEN, MICHAEL LAVONN B M 44 24-258 PUBLIC DRUNKENNESS 2016008125
6/18/2016 0350 MUNDY, DOMINIQUE ROSHAAD B M 40 46.2-862 RECKLESS DRIVING - EXCESSIVE SPEED
6/18/2016 0350 MUNDY, DOMINIQUE ROSHAAD B M 40 18.2-266|[M] DRIVING UNDER THE INFLUENCE OF ALCOHOL
6/18/2016 0510 JONES, ERIC DEANGELO B M 31 24-253 ALCOHOL - OPEN CONTAINER OF AN ALCOHOLIC BEVERAGE IN ANY PUB 2016008132
6/18/2016 0510 JONES, ERIC DEANGELO B M 31 24-258 PUBLIC DRUNKENNESS 2016008132
6/18/2016 0800 MUSTIN, EMMANUEL DEWAYNE JR B M 21 18.2-119 TRESPASSING
6/18/2016 1330 KEETER, RUSS HUNTER W M 44 18.2-96|[M] PETIT LARCENY 2016008152
6/18/2016 1349 MORRIS, TYSHIWON LAZAR JR B M 20 19.2-123 VIOLATE CONDITION OF RELEASE
6/18/2016 1632 TRAYLER, CASEY QUAY W M 21 40.1-7.3 CITY ZONING VIOLATION - GENERAL
6/18/2016 1633 TRAYLOR, KATHERINE LYNN W F 22 40.1-7.3 CITY ZONING VIOLATION - GENERAL
6/18/2016 2032 REID, DEAIRUS LORENZO B M 19 18.2-137|[M] DESTRUCTION OF PROPERTY, GENERAL 2016008156
6/18/2016 2032 REID, DEAIRUS LORENZO B M 19 18.2-91|[F] BREAKING & ENTER W/INT TO COMMIT FELONY 2016008156
6/18/2016 2032 REID, DEAIRUS LORENZO B M 19 46.2-301 DRIVING W/SUSPENDED OR REVOKED LICENSE 2016008156
6/18/2016 2032 REID, DEAIRUS LORENZO B M 19 46.2-896 HIT & RUN - UNATTENDED VEH 2016008156
6/18/2016 2032 REID, DEAIRUS LORENZO B M 19 19.2-128|[M] FAIL TO APPEAR ON MISDEMEANOR CHARGE
6/18/2016 2032 REID, DEAIRUS LORENZO B M 19 19.2-128|[F] FAIL TO APPEAR ON FELONY CHARGE
6/18/2016 2200 FIELD, MEGHAN ELIZABETH W F 24 18.2-415 DISORDERLY CONDUCT 2016008170
6/18/2016 2334 HICKS, VICTORIA FAYE B F 33 18.2-456 CONTEMPT OF COURT 2016008177
6/18/2016 9:30:00 AM 0930 HARPER, CHRISTOPHER DOVAN B M 32 18.2-51.6[F] STRANGULATION OF ANOTHER 2016007995
6/18/2016 9:30:00 AM 0930 HARPER, CHRISTOPHER DOVAN B M 32 18.2-57.2|[M] ASSAULT & BATTERY - FAMILY MEMBER 2016007995
6/18/2016 9:30:00 AM 0930 HARPER, CHRISTOPHER DOVAN B M 32 18.2-57.2|[M] ASSAULT & BATTERY - FAMILY MEMBER 2016007995
6/18/2016 4:00:00 PM 1600 CLARK, KELVIN DEWAYNE B M 23 18.2-96|[M] PETIT LARCENY 2016008158
6/19/2016 0107 DRAKE, JIMMIE DEE B M 76 24-258 PUBLIC DRUNKENNESS 2016008183
6/19/2016 0124 MADISON, SHEA LAMONT B M 39 18.2-456 CONTEMPT OF COURT
6/19/2016 0124 MADISON, SHEA LAMONT B M 39 18.2-456 CONTEMPT OF COURT
6/19/2016 0324 BRADSHAW, RORY LAQUAN B M 31 18.2-266|[F] DUI - THIRD OR SUBSEQUENT OFFENSE 2016008181
6/19/2016 0324 BRADSHAW, RORY LAQUAN B M 31 18.2-268.3 REFUSE BLOOD/BREATH TEST 2016008181
6/19/2016 0411 MANLEY, KEITH LEONARD B M 37 18.2-57.2|[F] ASSAULT & BATTERY - FAMILY MEMBER (3RD OFFENSE) 2016008184
6/19/2016 0411 MANLEY, KEITH LEONARD B M 37 18.2-415 DISORDERLY CONDUCT 2016008184
6/19/2016 0411 MANLEY, KEITH LEONARD B M 37 24-258 PUBLIC DRUNKENNESS 2016008184
6/19/2016 0414 HARRIS, JULIAN LA`MAR B M 26 18.2-248.1|[F] SALE, DISTRIBUTE MARIJUANA 2016008219
6/19/2016 0414 HARRIS, JULIAN LA`MAR B M 26 46.2-301 DRIVING W/SUSPENDED OR REVOKED LICENSE 2016008219
6/19/2016 0414 HARRIS, JULIAN LA`MAR B M 26 18.2-308|[M] CARRYING CONCEALED WEAPON -1ST OFFENSE 2016008219
6/19/2016 0414 HARRIS, JULIAN LA`MAR B M 26 18.2-56.1 RECKLESS HANDLING OF FIREARM 2016008219
6/19/2016 0414 HARRIS, JULIAN LA`MAR B M 26 18.2-280|[M] DISCHARGE FIREARM IN PUBLIC PLACE 2016008219
6/19/2016 0414 HARRIS, JULIAN LA`MAR B M 26 46.2-722 ALTER OR FORGE LICENSE PLATE OR DECAL 2016008219
6/19/2016 1115 EURE, CHERYL ANGLINE W F 36 18.2-250|[F] POSSESSION OF CONTROLLED SUBSTANCES 2016008188
6/19/2016 1115 EURE, CHERYL ANGLINE W F 36 54.1-3466 POSSESS, DISTRIBUTE CONTROLLED PARAPHERNALIA 2016008188
6/19/2016 1540 JONES, MICHAEL ANTONIO B M 44 22-18 DISTRIBUTION SOLICITATION SALES ON HIGHWAYS ROADWAYS
6/19/2016 1710 WILLIAMS, DANNY THOMAS B M 55 18.2-137|[M] DESTRUCTION OF PROPERTY, GENERAL 2016008189
6/19/2016 1710 WILLIAMS, DANNY THOMAS B M 55 18.2-89|[F] BURGLARY 2016008189
6/19/2016 1710 WILLIAMS, DANNY THOMAS B M 55 18.2-95 GRAND LARCENY 2016008189
6/19/2016 8:39:00 AM 0839 BAILENS, KARLSTON B M 21 18.2-137|[M] DESTRUCTION OF PROPERTY, GENERAL 2016008191
6/19/2016 9:49:00 AM 0949 BARNES, JOHN MICHAEL W M 26 18.2-103|[M] CONCEALMENT, PRICE ALTER MERCHANDISE <$200 2016008193
6/20/2016 0224 HARRIS, BRITTNAY ALICE B F 21 18.2-456 CONTEMPT OF COURT
6/20/2016 1059 RIDDICK, CARL WESLEY B M 46 18.2-456 CONTEMPT OF COURT
6/20/2016 1136 CROOK, DESHAWN EMANUEL B M 31 PB-15 PAROLE BOARD WARRANT - PB15
6/20/2016 1343 JONES, DIAMON MICHELLE B F 21 18.2-456 CONTEMPT OF COURT
6/20/2016 1358 HARRIS, SHAQUITA ANN B F 29 18.2-248|[F] MANUF, SALE, POSSESSION CONTROLLED SUBSTANCE 2016008231
6/20/2016 1417 POWELL, JASMIN CHANEL B F 24 18.2-456 CONTEMPT OF COURT
6/20/2016 1417 POWELL, JASMIN CHANEL B F 24 18.2-456 CONTEMPT OF COURT
6/20/2016 1417 POWELL, JASMIN CHANEL B F 24 18.2-250|[F] POSSESSION OF CONTROLLED SUBSTANCES
6/20/2016 1417 POWELL, JASMIN CHANEL B F 24 18.2-186.3 IDENTITY THEFT: USE TO AVOID ARREST
6/20/2016 1440 PARRISH, CHRISTOPHER EDWARD W M 29 18.2-427 PROFANE, THREATENING LANGUAGE OVER PUBLIC AIRWAY
6/20/2016 1550 FLOYD, SHANNON DAWN W F 34 18.2-96|[M] PETIT LARCENY 2016008260
6/20/2016 1616 HUDSON, CHRISTINE LOUISE W F 27 19.2-135 CONTEMPT - SHOW CAUSE
6/20/2016 1618 HOLLAND, DENNIS WAYNE W M 59 18.2-119 TRESPASSING
6/20/2016 1618 HOLLAND, DENNIS WAYNE W M 59 24-262 AGGRESSIVE PANHANDLING
6/20/2016 1634 NELSON, THEA MARIE W F 33 18.2-456 CONTEMPT OF COURT
6/20/2016 1651 SHORTER, VALERIE UNIQUE B F 36 19.2-306|[F] REVOCATION OF SUSPENDED SENTENCE AND PROBATION
6/20/2016 1715 MICKLE, JAMES GURTHIER JR B M 53 1-200 COMMON LAW
6/20/2016 1715 MICKLE, JAMES GURTHIER JR B M 53 1-200 COMMON LAW
6/20/2016 1800 FAULKS, CHARLENE DENISE B F 34 18.2-96|[M] PETIT LARCENY 2016008272
6/20/2016 1800 COURTLANDT, SHAUNTEA MONIQUE B F 28 18.2-96|[M] PETIT LARCENY 2016008272
6/20/2016 2045 MICKLE, JAMES GURTHIER JR B M 53 18.2-250|[F] POSSESSION OF CONTROLLED SUBSTANCES 2016008267
6/20/2016 2144 WHITE, AVERY LYNDELL B M 58 19.2-306|[F] REVOCATION OF SUSPENDED SENTENCE AND PROBATION 2013013429
6/20/2016 12:59:00 AM 0059 JENKINS, CALVIN EUGENE B M 36 19.2-306|[M] REVOCATION OF SUSPENDED SENTENCE AND PROBATION 2016008227
6/20/2016 12:16:00 PM 1216 BUTTS, THOMAS LEE JR B M 41 18.2-456 CONTEMPT OF COURT
6/20/2016 12:24:00 PM 1224 HINTON, SHALACE BRESHAWNA LEE B F 21 18.2-57|[M] ASSAULT & BATTERY
6/21/2016 0215 FIDELE, JEREMY FRANCOIS B M 26 18.2-119 TRESPASSING
6/21/2016 0630 TYSON, JERMAINE EMMANUEL B M 21 18.2-250.1|[M][A] POSSESSION OF MARIJUANA - FIRST OFFENSE 2016008292
6/21/2016 0630 TYSON, JERMAINE EMMANUEL B M 21 18.2-250|[M] POSSESSION OF CONTROLLED SUBSTANCES 2016008292
6/21/2016 0702 SIMPSON, MICHAEL DE`QUEN B M 25 18.2-456 CONTEMPT OF COURT
6/21/2016 0832 MCGUIRE, MICHAEL LEE JR B M 40 18.2-57.2|[M] ASSAULT & BATTERY - FAMILY MEMBER 2016008180
6/21/2016 0935 LOVEWINE, PHILLINA NINETTA B F 38 18.2-57.2|[M] ASSAULT & BATTERY - FAMILY MEMBER 2016008300
6/21/2016 1007 BLOWE, BRANDON DALE B M 32 18.2-57.2|[F] ASSAULT & BATTERY - FAMILY MEMBER (3RD OFFENSE) 2016008300
6/21/2016 1045 EVANS, REGINALD N B M 61 4-31 DOG AT LARGE
6/21/2016 1109 JUDE, ALFRED LYNN B M 45 PB-15 PAROLE BOARD WARRANT - PB15
6/21/2016 1218 COPPEDGE, DAVID B M 56 PB-15 PAROLE BOARD WARRANT - PB15
6/21/2016 1236 POWELL, AKALA BENAY B F 23 18.2-456 CONTEMPT OF COURT
6/21/2016 1308 HUFFMAN, ROGER LEE SR W M 36 18.2-308.2:2|[F] FIREARM PURCHASE OR DEALER VIOLATION
6/21/2016 1510 GILLIS, JAMES E B M 36 18.2-96|[M] PETIT LARCENY 2016008329
6/21/2016 1512 SALLEE, KENNETH EMIL B M 55 19.2-128|[F] FAIL TO APPEAR ON FELONY CHARGE
6/21/2016 1609 WAPLES, EDWARD ROY SR B M 60 18.2-456 CONTEMPT OF COURT
6/21/2016 1705 PHILLIPS, DEMARIO ANTHONY B M 37 19.2-306|[F] REVOCATION OF SUSPENDED SENTENCE AND PROBATION
6/21/2016 1743 VENERY, DAVID W M 47 18.2-57|[M] ASSAULT & BATTERY
6/21/2016 1908 PARNELL, ANNIE FAYE W F 34 18.2-57.2|[M] ASSAULT & BATTERY - FAMILY MEMBER
6/21/2016 1940 WILLIAMS, SALLIE DORETHEA B F 23 18.2-456 CONTEMPT OF COURT
6/21/2016 2039 BUDA, BRENT ALEXANDER W M 31 19.2-306|[F] REVOCATION OF SUSPENDED SENTENCE AND PROBATION
6/21/2016 2138 BOWENS-BENTON, ISAIAH GERROD B M 18 18.2-95 GRAND LARCENY 2016007775
6/21/2016 2138 BOWENS-BENTON, ISAIAH GERROD B M 18 18.2-137|[F] DESTRUCTION OF PROPERTY GENERAL -VALUE >=$1000 2016007775
6/22/2016 0140 OUTLAND, LAZARUS LEE B M 22 46.2-301 DRIVING W/SUSPENDED OR REVOKED LICENSE 9999238400
6/22/2016 0201 FIDELE, JEREMY FRANCOIS B M 26 24-253 ALCOHOL - OPEN CONTAINER OF AN ALCOHOLIC BEVERAGE IN ANY PUB 2016008402
6/22/2016 0202 ALLEYNE, WILLIAM SEBASTIAN B M 26 19.2-128|[F] FAIL TO APPEAR ON FELONY CHARGE 7777238079
6/22/2016 0440 WARD, AMANDA GAIL W F 32 18.2-250|[F] POSSESSION OF CONTROLLED SUBSTANCES 2016008355
6/22/2016 0440 WARD, AMANDA GAIL W F 32 18.2-250|[F] POSSESSION OF CONTROLLED SUBSTANCES 2016008355
6/22/2016 0440 WARD, AMANDA GAIL W F 32 18.2-103|[M] CONCEALMENT, PRICE ALTER MERCHANDISE <$200 2016008355
6/22/2016 0440 WARD, AMANDA GAIL W F 32 18.2-103|[M] CONCEALMENT, PRICE ALTER MERCHANDISE <$200 2016008355
6/22/2016 0530 JOYNER, LAWRENCE EVERETT W M 55 18.2-248.1:1[F] POSSESSION WITH INTENT TO DISTRIBUTE SYNTHETIC CANNABINOIDS 2016008355
6/22/2016 0530 JOYNER, LAWRENCE EVERETT W M 55 18.2-248.1:1[F] POSSESSION WITH INTENT TO DISTRIBUTE SYNTHETIC CANNABINOIDS 2016008355
6/22/2016 0530 JOYNER, LAWRENCE EVERETT W M 55 18.2-250|[F] POSSESSION OF CONTROLLED SUBSTANCES 2016008355
6/22/2016 0530 JOYNER, LAWRENCE EVERETT W M 55 18.2-103|[M] CONCEALMENT, PRICE ALTER MERCHANDISE <$200 2016008355
6/22/2016 0959 MORRIS, JAMELLE LEIGHTON B M 28 18.2-456 CONTEMPT OF COURT
6/22/2016 1324 GUERRERO, AMBER DAWN W F 36 18.2-456 CONTEMPT OF COURT
6/22/2016 1436 KIRK, ASHLEY KATHREYN W F 30 18.2-456 CONTEMPT OF COURT
6/22/2016 1436 KIRK, ASHLEY KATHREYN W F 30 18.2-95 GRAND LARCENY
6/22/2016 1436 KIRK, ASHLEY KATHREYN W F 30 18.2-456 CONTEMPT OF COURT
6/22/2016 1436 KIRK, ASHLEY KATHREYN W F 30 18.2-250|[F] POSSESSION OF CONTROLLED SUBSTANCES 2016008380
6/22/2016 1436 KIRK, ASHLEY KATHREYN W F 30 18.2-456 CONTEMPT OF COURT
6/22/2016 1540 BOONE, KERRICA SHREA B F 38 18.2-60.4 [M] VIOLATION OF STALKING PROTECTIVE ORDER
6/22/2016 1636 BRIGHT, KUNYESHIA SJHNAYA B F 25 16.1-279.1 PROTECTIVE ORDER IN CASES OF FAMILY ABUS
6/22/2016 1636 BRIGHT, KUNYESHIA SJHNAYA B F 25 18.2-57.2|[M] ASSAULT & BATTERY - FAMILY MEMBER
6/22/2016 1640 WINBORNE, DARONTE RASSAN B M 19 18.2-456 CONTEMPT OF COURT
6/22/2016 1727 GRAY, HELEN CHARITA B F 52 18.2-57.2|[M] ASSAULT & BATTERY - FAMILY MEMBER 2016008390
6/22/2016 1820 MACKLIN, ONEIL B M 65 18.2-57.2|[M] ASSAULT & BATTERY - FAMILY MEMBER 2016008390
6/22/2016 1904 WILSON, CARL JAVON B M 34 18.2-456 CONTEMPT OF COURT
6/22/2016 2010 WHITEHEAD, ORLANDO DONTE B M 37 24-253 ALCOHOL - OPEN CONTAINER OF AN ALCOHOLIC BEVERAGE IN ANY PUB 2016008400
6/22/2016 2017 EURE, GREGORY B M 62 24-253 ALCOHOL - OPEN CONTAINER OF AN ALCOHOLIC BEVERAGE IN ANY PUB 2016008401
6/22/2016 2017 SKEETER, PRINCE TERRANCE B M 21 18.2-137|[M] DESTRUCTION OF PROPERTY, GENERAL 2016008397
6/22/2016 2118 WILLIAMS, KEVIN STIPHAWN B M 25 18.2-456 CONTEMPT OF COURT
6/22/2016 2330 MORGAN, MELISSA MAE W F 32 19.2-306|[F] REVOCATION OF SUSPENDED SENTENCE AND PROBATION
6/22/2016 2330 MORGAN, MELISSA MAE W F 32 54.1-3466 POSSESS, DISTRIBUTE CONTROLLED PARAPHERNALIA 2016008405
6/22/2016 2330 MORGAN, MELISSA MAE W F 32 18.2-250|[F] POSSESSION OF CONTROLLED SUBSTANCES 2016008405
6/22/2016 2330 MORGAN, MELISSA MAE W F 32 18.2-250|[F] POSSESSION OF CONTROLLED SUBSTANCES 2016008405
6/22/2016 7:20:00 AM 0720 VAUGHAN, MAMIE ARIAINE B F 49 18.2-57.2|[M] ASSAULT & BATTERY - FAMILY MEMBER
6/22/2016 8:24:00 PM 2024 PIERCE, SHAKERA DOMINIQUE B F 25 18.2-52 INJURY - CAUSTIC AGENT, EXPLOSIVE OR FIRE 2016004978
6/22/2016 8:24:00 PM 2024 PIERCE, SHAKERA DOMINIQUE B F 25 18.2-57|[M] ASSAULT & BATTERY 2016004978
6/23/2016 0115 BROWN, LADARRIUS KEION B M 21 18.2-57.2|[M] ASSAULT & BATTERY - FAMILY MEMBER 2016008410
6/23/2016 0143 BOWERS, AMY ELIZABETH W F 38 18.2-456 CONTEMPT OF COURT
6/23/2016 0200 IRVIN, JAMES LEON B M 29 18.2-119 TRESPASSING
6/23/2016 0200 IRVIN, JAMES LEON B M 29 18.2-250.1 POSSESSION OF MARIJUANA
6/23/2016 0322 NICHOLS, CHARLES RAY III W M 24 18.2-456 CONTEMPT OF COURT
6/23/2016 0730 ALLEYNE, WILLIAM SEBASTIAN B M 26 19.2-306|[F] REVOCATION OF SUSPENDED SENTENCE AND PROBATION 9999238110
6/23/2016 0802 RODGERS, LINDSEY LEROY IV B M 20 18.2-456 CONTEMPT OF COURT
6/23/2016 1015 SHARP, KENISHA LATONYA B F 34 18.2-26 ATTEMPT TO COMMIT NONCAPITAL OFFENSE
6/23/2016 1018 JOHNSON, CHRISTOPHER MICHAEL B M 22 18.2-128|[M] TRESPASS ON CHURCH OR SCHOOL PROPERTY
6/23/2016 1201 BODY, DELSHAWN LEON B M 28 18.2-456 CONTEMPT OF COURT
6/23/2016 1219 PHILYAW, CALEB SPENCER W M 21 19.2-123 VIOLATE CONDITION OF RELEASE
6/23/2016 1221 THOMAS, CARL DUPREE B M 50 18.2-119 TRESPASSING
6/23/2016 1331 SAWYER, MICHAEL ANTONIO B M 48 18.2-96|[F] LARCENY OR THEFT (3RD OR SUBSQ OFFENSE) 2016008433
6/23/2016 1429 LIETUVNINKAS, BRANDY ELIZABETH W F 31 18.2-427 PROFANE, THREATENING LANGUAGE OVER PUBLIC AIRWAY
6/23/2016 1746 BRADY, CAMERON DONDRE B M 20 18.2-456 CONTEMPT OF COURT
6/23/2016 1755 CREEKMORE, SHAWN MAURICE JR B M 21 18.2-248.1|[F] SALE, DISTRIBUTE MARIJUANA 2016008440
6/23/2016 1755 CREEKMORE, SHAWN MAURICE JR B M 21 18.2-248|[F] MANUF, SALE, POSSESSION CONTROLLED SUBSTANCE 2016008440
6/23/2016 1851 MURPHY, TORREY DARNELL B M 39 19.2-306|[F] REVOCATION OF SUSPENDED SENTENCE AND PROBATION
6/23/2016 2227 BLACK, WINSTON BERNARD JR B M 34 19.2-128|[F] FAIL TO APPEAR ON FELONY CHARGE
6/23/2016 2227 BLACK, WINSTON BERNARD JR B M 34 19.2-135 CONTEMPT - SHOW CAUSE
6/23/2016 2311 SIMON, SHADAVA PATRICE B F 25 18.2-427 PROFANE, THREATENING LANGUAGE OVER PUBLIC AIRWAY
6/23/2016 2311 SIMON, SHADAVA PATRICE B F 25 19.2-152.10 PROTECTIVE ORDER
6/23/2016 2311 SIMON, SHADAVA PATRICE B F 25 18.2-57|[M] ASSAULT & BATTERY
6/23/2016 2311 SIMON, SHADAVA PATRICE B F 25 18.2-371 CONTRIBUTING TO THE DELINQUENCY OF A MINOR
6/23/2016 2336 RUSSELL, ERICK SCOTT W M 29 19.2-128|[M] FAIL TO APPEAR ON MISDEMEANOR CHARGE
6/23/2016 9:49:00 AM 0949 CARTER, DEBRA DEQUINTHIA B F 52 18.2-137|[M] DESTRUCTION OF PROPERTY, GENERAL
6/24/2016 0029 SCOTT, CARL DARNELL B M 52 18.2-388 PUBLIC SWEARING OR INTOXICATION 2016008461
6/24/2016 0052 CLARK, TELVION GREY B M 25 18.2-388 PUBLIC SWEARING OR INTOXICATION 2016008462
6/24/2016 0052 CLARK, TELVION GREY B M 25 18.2-308|[M] CARRYING CONCEALED WEAPON -1ST OFFENSE 2016008462
6/24/2016 0124 HANLEY, ANTHONY NICHOLAS W M 27 19.2-128|[F] FAIL TO APPEAR ON FELONY CHARGE 9999238416
6/24/2016 0124 HANLEY, ANTHONY NICHOLAS W M 27 19.2-128|[F] FAIL TO APPEAR ON FELONY CHARGE 9999238416
6/24/2016 0124 HANLEY, ANTHONY NICHOLAS W M 27 19.2-128|[F] FAIL TO APPEAR ON FELONY CHARGE 9999238416
6/24/2016 0124 HANLEY, ANTHONY NICHOLAS W M 27 19.2-128|[F] FAIL TO APPEAR ON FELONY CHARGE 9999238416
6/24/2016 0322 VAUGHAN, TYWONE LACHARLES B M 22 18.2-57.2|[M] ASSAULT & BATTERY - FAMILY MEMBER 2016008467
6/24/2016 1025 SYKES, TANIKA RENEE B F 33 18.2-456 CONTEMPT OF COURT
6/24/2016 1128 TURNER, RANDY AUGUSTA B M 54 19.2-123 VIOLATE CONDITION OF RELEASE
6/24/2016 1517 GARGIULO, ANTHONY ANDREW III W M 23 18.2-456 CONTEMPT OF COURT
6/24/2016 1600 DRIVER, THERESA DENISE B F 57 18.2-96|[M] PETIT LARCENY 2016008503
6/24/2016 1625 MICKLE, JAMES GURTHIER JR B M 53 18.2-57|[M] ASSAULT & BATTERY
6/24/2016 1630 BOONE, DARRYL CLEON B M 49 18.2-96|[M] PETIT LARCENY 2016008505
6/24/2016 1713 WILLIAMS, TIA TENAYA B F 37 18.2-95 GRAND LARCENY 2016004609
6/24/2016 1713 WILLIAMS, TIA TENAYA B F 37 18.2-168 FORGING PUBLIC RECORDS 2016004609
6/24/2016 1713 WILLIAMS, TIA TENAYA B F 37 18.2-168 FORGING PUBLIC RECORDS 2016004609
6/24/2016 1713 WILLIAMS, TIA TENAYA B F 37 18.2-168 FORGING PUBLIC RECORDS 2016004609
6/24/2016 1713 WILLIAMS, TIA TENAYA B F 37 18.2-168 FORGING PUBLIC RECORDS 2016004609
6/24/2016 1713 WILLIAMS, TIA TENAYA B F 37 18.2-434 PERJURY 2016004609
6/24/2016 1713 WILLIAMS, TIA TENAYA B F 37 18.2-186.3|[M] IDENTITY FRAUD 2016004609
6/24/2016 1714 BOONE, DARRYL CLEON B M 49 4-96 FAILURE TO ACQUIRE RABIES VACCINATION
6/24/2016 1714 BOONE, DARRYL CLEON B M 49 4-61 CITY DOG LICENSE REQUIREMENT
6/24/2016 1742 MAY, AMBER LEE CARROLL W F 33 18.2-95 GRAND LARCENY 2016007339
6/24/2016 1742 MAY, AMBER LEE CARROLL W F 33 18.2-95 GRAND LARCENY 2016007339
6/24/2016 1742 MAY, AMBER LEE CARROLL W F 33 18.2-137|[F] DESTRUCTION OF PROPERTY GENERAL -VALUE >=$1000 2016007339
6/24/2016 1742 MAY, AMBER LEE CARROLL W F 33 19.2-123 VIOLATE CONDITION OF RELEASE
6/24/2016 1803 COPELAND, GARNET B M 50 18.2-456 CONTEMPT OF COURT 9999238142
6/24/2016 1812 EALEY, LAMAR DONTE B M 29 19.2-306|[F] REVOCATION OF SUSPENDED SENTENCE AND PROBATION
6/24/2016 1825 BROWN, ALLEN JR B M 23 19.2-306|[F] REVOCATION OF SUSPENDED SENTENCE AND PROBATION
6/24/2016 1825 BROWN, ALLEN JR B M 23 19.2-306|[F] REVOCATION OF SUSPENDED SENTENCE AND PROBATION
6/24/2016 1825 BROWN, ALLEN JR B M 23 19.2-306|[F] REVOCATION OF SUSPENDED SENTENCE AND PROBATION
6/24/2016 1844 JENKINS, TIMOTHY SCOTT B M 25 19.2-306|[F] REVOCATION OF SUSPENDED SENTENCE AND PROBATION
6/24/2016 1906 WARD, TIMOTHY RAYMOND W M 25 18.2-250|[F] POSSESSION OF CONTROLLED SUBSTANCES 2016008494
6/24/2016 1906 WARD, TIMOTHY RAYMOND W M 25 46.2-896 HIT & RUN - UNATTENDED VEH 2016008494
6/24/2016 2045 WILLIAMS, RUSSELL VERNON B M 35 19.2-306|[F] REVOCATION OF SUSPENDED SENTENCE AND PROBATION
6/24/2016 2049 JOHNSON, JAMES EDWARD W M 62 18.2-57|[M] ASSAULT & BATTERY 2016008506
6/24/2016 2049 JOHNSON, JAMES EDWARD W M 62 18.2-427 PROFANE, THREATENING LANGUAGE OVER PUBLIC AIRWAY 2016008506
6/24/2016 2115 EPPS, JAMON DONTAE B M 26 18.2-456 CONTEMPT OF COURT
6/24/2016 2200 ASBURY, TYRONE ANTHONY B M 36 24-253 ALCOHOL - OPEN CONTAINER OF AN ALCOHOLIC BEVERAGE IN ANY PUB 2016008517
6/24/2016 2223 JONES, ROOSEVELT III B M 38 24-253 ALCOHOL - OPEN CONTAINER OF AN ALCOHOLIC BEVERAGE IN ANY PUB 2016008520
6/24/2016 2230 BOOTH, CHINITA CHANICE B F 26 19.2-82.1 FALSE IDENTIFY SELF TO LAW ENFORCEMENT
6/24/2016 2234 MADISON, NORMAN LEO B M 63 24-258 PUBLIC DRUNKENNESS
6/24/2016 2256 BOWSER, TONYA CHARICE B F 48 19.2-306|[F] REVOCATION OF SUSPENDED SENTENCE AND PROBATION
6/24/2016 2256 BOWSER, TONYA CHARICE B F 48 19.2-306|[F] REVOCATION OF SUSPENDED SENTENCE AND PROBATION
6/25/2016 0045 WALKER, TARON DEVELLE B M 28 18.2-456 CONTEMPT OF COURT
6/25/2016 0045 WALKER, TARON DEVELLE B M 28 18.2-456 CONTEMPT OF COURT
6/25/2016 0045 WALKER, TARON DEVELLE B M 28 19.2-82.1 FALSE IDENTIFY SELF TO LAW ENFORCEMENT 2016008521
6/25/2016 0045 WALKER, TARON DEVELLE B M 28 18.2-479.1 RESISTING ARREST 2016008521
6/25/2016 0045 WALKER, TARON DEVELLE B M 28 18.2-186.3 IDENTITY THEFT: USE TO AVOID ARREST 2016008521
6/25/2016 0304 PLACE, TERSHANE ANTHONY EUGENE B M 28 18.2-91|[F] BREAKING & ENTER W/INT TO COMMIT FELONY 2016008510
6/25/2016 0304 PLACE, TERSHANE ANTHONY EUGENE B M 28 18.2-57|[M] ASSAULT & BATTERY 2016008510
6/25/2016 0304 PLACE, TERSHANE ANTHONY EUGENE B M 28 18.2-137|[M] DESTRUCTION OF PROPERTY, GENERAL 2016008510
6/25/2016 0503 GRAY, NATHAN JAMAL B M 34 46.2-894|[F] HIT AND RUN - PERSONAL INJURY
6/25/2016 0503 GRAY, NATHAN JAMAL B M 34 46.2-301 DRIVING W/SUSPENDED OR REVOKED LICENSE
6/25/2016 1300 POWELL, CLARENCE GREGORY B M 49 24-206 URINATE OR DEFECATE IN PUBLIC [CLASS 4 MISD]
6/25/2016 1300 POWELL, CLARENCE GREGORY B M 49 18.2-119 TRESPASSING
6/25/2016 1944 BENTON, SHARON EVETTE B F 35 18.2-119 TRESPASSING
6/25/2016 2107 FLOURNOY, EDWARD B M 49 18.2-456 CONTEMPT OF COURT
6/25/2016 2107 FLOURNOY, EDWARD B M 49 46.2-830 FAIL TO OBEY SIGNS/ BOND SURRENDER/ IMPROP EQUIP
6/25/2016 2107 FLOURNOY, EDWARD B M 49 46.2-613 VEHICLE REGISTRATION VIOLATIONS
6/25/2016 2107 FLOURNOY, EDWARD B M 49 46.2-715 STATE LICENSE PLATES - FRONT AND REAR REQUIRED
6/25/2016 2107 FLOURNOY, EDWARD B M 49 46.2-301 DRIVING W/SUSPENDED OR REVOKED LICENSE
6/25/2016 2151 CHATMON, RICHARD DEVORRIE B M 43 18.2-250.1 POSSESSION OF MARIJUANA 2016008571
6/25/2016 2155 RICKS, THOMAS W M 48 18.2-456 CONTEMPT OF COURT
6/25/2016 2200 BLEVINS, MATTHEW COLE W M 22 24-258 PUBLIC DRUNKENNESS 2016008565
6/25/2016 2255 NORVELL, DARRIUS RASONE B M 24 18.2-456 CONTEMPT OF COURT
6/25/2016 11:50:00 AM 1150 HITE, GLORIA JEAN B F 59 18.2-119 TRESPASSING
6/25/2016 11:50:00 AM 1150 HITE, GLORIA JEAN B F 59 24-206 URINATE OR DEFECATE IN PUBLIC [CLASS 4 MISD]
6/25/2016 2:52:00 PM 1452 GODLEY, GLENETTE LATRICE B F 39 24-253 ALCOHOL - OPEN CONTAINER OF AN ALCOHOLIC BEVERAGE IN ANY PUB
6/25/2016 5:09:00 PM 1709 CURLIING, CHARLES BERNARD III W M 19 18.2-250.1 POSSESSION OF MARIJUANA 2016008558
6/25/2016 9:10:00 PM 2110 GODFREY, PATRICIA AILEEN W F 48 4-96 FAILURE TO ACQUIRE RABIES VACCINATION
6/25/2016 9:10:00 PM 2110 GODFREY, PATRICIA AILEEN W F 48 4-61 CITY DOG LICENSE REQUIREMENT
6/26/2016 0001 TERRELL, DWAYNE YARNELL B M 24 18.2-456 CONTEMPT OF COURT
6/26/2016 0044 WIGGINS, TRAVON ALLEN B M 26 18.2-308|[F] CARRYING CONCEALED WEAPON -SUBSQ OFFENSE 2016008575
6/26/2016 0044 WIGGINS, TRAVON ALLEN B M 26 18.2-119 TRESPASSING 2016008575
6/26/2016 0044 WIGGINS, TRAVON ALLEN B M 26 18.2-250.1 POSSESSION OF MARIJUANA 2016008575
6/26/2016 0153 BLEVINS, MATTHEW COLE W M 22 18.2-57|[F] ASSAULT & BATTERY 2016008578
6/26/2016 0320 KEARNEY, VINCENT B M 32 18.2-371.1 ABUSE AND NEGLECT OF CHILDREN 2016008580
6/26/2016 0320 KEARNEY, VINCENT B M 32 18.2-266|[M] DRIVING UNDER THE INFLUENCE OF ALCOHOL 2016008580
6/26/2016 0320 KEARNEY, VINCENT B M 32 46.2-613 VEHICLE REGISTRATION VIOLATIONS 2016008580
6/26/2016 1757 EDURIA, ALEX GARVIDA A M 56 18.2-282|[M] BRANDISHING FIREARM 2016008594
6/26/2016 1757 EDURIA, ALEX GARVIDA A M 56 18.2-282|[M] BRANDISHING FIREARM 2016008594
6/26/2016 1757 EDURIA, ALEX GARVIDA A M 56 18.2-282|[M] BRANDISHING FIREARM 2016008594
6/26/2016 1757 EDURIA, ALEX GARVIDA A M 56 18.2-57|[M] ASSAULT & BATTERY 2016008594
6/26/2016 1757 EDURIA, ALEX GARVIDA A M 56 18.2-57|[M] ASSAULT & BATTERY 2016008594
6/26/2016 1757 EDURIA, ALEX GARVIDA A M 56 18.2-57|[M] ASSAULT & BATTERY 2016008594
6/26/2016 2300 GRIFFIN, TIMOTHY WADE JR B M 25 18.2-57.2|[M] ASSAULT & BATTERY - FAMILY MEMBER 2016008608
6/26/2016 12:56:00 AM 0056 MCKIVER, MARANTO B M 41 46.2-1015 BICYCLES - HEADLIGHT REQUIRED WHEN IN USE BETWEEN SUNSET AND
6/26/2016 12:56:00 AM 0056 MCKIVER, MARANTO B M 41 18.2-460|[M] OBSTRUCTING JUSTICE
6/26/2016 12:56:00 AM 0056 MCKIVER, MARANTO B M 41 5-26 BICYCLES-NO REGISTRATION
6/27/2016 0003 MARTIN, DANIEL TUCKER W M 50 18.2-57|[M] ASSAULT & BATTERY
6/27/2016 0003 MARTIN, DANIEL TUCKER W M 50 18.2-111|[F] EMBEZZLEMENT >=$200
6/27/2016 0003 MARTIN, DANIEL TUCKER W M 50 18.2-111|[F] EMBEZZLEMENT >=$200
6/27/2016 0024 BARNES, DAVID DONTE B M 26 18.2-250.1 POSSESSION OF MARIJUANA 2016008667
6/27/2016 0315 ATTZS, STEPHAN LEE B M 24 18.2-57.2|[M] ASSAULT & BATTERY - FAMILY MEMBER 2016008612
6/27/2016 0702 WORRELL, RICHARD HENRY IV W M 27 18.2-250|[F] POSSESSION OF CONTROLLED SUBSTANCES 2016008616
6/27/2016 0702 WORRELL, RICHARD HENRY IV W M 27 19.2-306|[F] REVOCATION OF SUSPENDED SENTENCE AND PROBATION
6/27/2016 0702 WORRELL, RICHARD HENRY IV W M 27 19.2-306|[F] REVOCATION OF SUSPENDED SENTENCE AND PROBATION
6/27/2016 0702 WORRELL, RICHARD HENRY IV W M 27 19.2-128|[M] FAIL TO APPEAR ON MISDEMEANOR CHARGE
6/27/2016 0702 WORRELL, RICHARD HENRY IV W M 27 19.2-306|[F] REVOCATION OF SUSPENDED SENTENCE AND PROBATION
6/27/2016 0743 MACK, ERIN THERESA W F 25 18.2-250|[F] POSSESSION OF CONTROLLED SUBSTANCES 2016008616
6/27/2016 0842 BARNES, CHRISTOPHER MCKINLEY B M 32 18.2-250.1 POSSESSION OF MARIJUANA 2016008615
6/27/2016 0842 BARNES, CHRISTOPHER MCKINLEY B M 32 18.2-51.2 AGGRAVATED MALICIOUS WOUNDING 2016008615
6/27/2016 0947 RANDALL, DANIEL O`NEAL KIRK B M 25 18.2-456 CONTEMPT OF COURT
6/27/2016 1026 HOWELL, TELLY CHEVIE CAPRICE JR B M 18 18.2-57|[M] ASSAULT & BATTERY
6/27/2016 1056 GRANT, DOMINIC ERIC B M 31 18.2-456 CONTEMPT OF COURT
6/27/2016 1124 PRYOR, MICHAEL LEROY B M 52 19.2-306|[F] REVOCATION OF SUSPENDED SENTENCE AND PROBATION
6/27/2016 1200 BONEY, KENNY JAVONE B M 28 18.2-57.2|[M] ASSAULT & BATTERY - FAMILY MEMBER
6/27/2016 1200 BONEY, KENNY JAVONE B M 28 18.2-57.2|[M] ASSAULT & BATTERY - FAMILY MEMBER
6/27/2016 1200 BONEY, KENNY JAVONE B M 28 16.1-279.1 PROTECTIVE ORDER IN CASES OF FAMILY ABUS
6/27/2016 1349 COTTON, BRIANNA SHANAE B F 23 18.2-456 CONTEMPT OF COURT
6/27/2016 1354 FEIMSTER, JOHN EDWARD B M 61 18.2-456 CONTEMPT OF COURT
6/27/2016 1420 DAVIS, MARKUS WARREN B M 33 18.2-91|[F] BREAKING & ENTER W/INT TO COMMIT FELONY 2016008623
6/27/2016 1420 DAVIS, MARKUS WARREN B M 33 18.2-137|[M] DESTRUCTION OF PROPERTY, GENERAL 2016008623
6/27/2016 1509 SPRUILL, MICHAEL ANTHONY B M 39 19.2-128|[F] FAIL TO APPEAR ON FELONY CHARGE
6/27/2016 1509 SPRUILL, MICHAEL ANTHONY B M 39 19.2-128|[F] FAIL TO APPEAR ON FELONY CHARGE
6/27/2016 1520 HUMPHREY, RENARD B M 61 18.2-119 TRESPASSING 2016008643
6/27/2016 1529 AUNGST, DORIAN LEE W M 43 18.2-57.2|[M] ASSAULT & BATTERY - FAMILY MEMBER 2016008637
6/27/2016 1529 AUNGST, DORIAN LEE W M 43 18.2-371 CONTRIBUTING TO THE DELINQUENCY OF A MINOR 2016008637
6/27/2016 1540 BOSTON, ROBERT EARL II B M 44 18.2-456 CONTEMPT OF COURT
6/27/2016 1709 UMSTEAD, CLIFFE ANDERSON W F 31 18.2-250|[F] POSSESSION OF CONTROLLED SUBSTANCES
6/27/2016 1739 BROWN, MAURICE ANDRE B M 23 18.2-57.2|[M] ASSAULT & BATTERY - FAMILY MEMBER 2016007861
6/27/2016 1821 MCCLEAN, ARNESHA KIANNA B F 26 18.2-96|[M] PETIT LARCENY 2016008651
6/27/2016 1847 RAVENEL, MARCUS ANTHONY B M 24 18.2-119 TRESPASSING
6/27/2016 1849 COBBS, JAMIL ANITHALEE B M 24 18.2-217 ADVERTISING MERCH W/O INTENT TO SELL AT PRICE
6/27/2016 2004 CARDONA, MICHAEL RUIZ W M 29 18.2-456 CONTEMPT OF COURT
6/27/2016 2157 STILES, ANTONIO MAURICE B M 32 18.2-57.2|[M] ASSAULT & BATTERY - FAMILY MEMBER 2016008650
6/27/2016 2229 LEGER, MICHAEL LEE W M 47 19.2-306|[F] REVOCATION OF SUSPENDED SENTENCE AND PROBATION
6/27/2016 2339 BARNES, DAVID DONTE B M 26 18.2-456 CONTEMPT OF COURT
6/27/2016 9:42:00 AM 0942 JACKSON, JIMMY NATHANIEL JR B M 43 18.2-456 CONTEMPT OF COURT
6/27/2016 7:13:00 PM 1913 PITTS-WORRELL, PATIENCE PATRICE B F 36 18.2-96|[F] LARCENY OR THEFT (3RD OR SUBSQ OFFENSE) 2015001879
6/28/2016 0731 ELEY, QUAMESHA LASHAE B F 19 18.2-96|[M] PETIT LARCENY 2016008676
6/28/2016 0953 MCCLAIN, NAKITA B F 30 18.2-119 TRESPASSING 2016008682
6/28/2016 1002 HAMMIEL, RICHARD DEAN B M 49 18.2-456 CONTEMPT OF COURT
6/28/2016 1025 BURKE, KOLBY DAVON B M 24 19.2-306|[F] REVOCATION OF SUSPENDED SENTENCE AND PROBATION
6/28/2016 1025 BURKE, KOLBY DAVON B M 24 19.2-306|[F] REVOCATION OF SUSPENDED SENTENCE AND PROBATION
6/28/2016 1046 JARRIEL, CLINTON JOHN DAVID W M 36 18.2-456 CONTEMPT OF COURT
6/28/2016 1118 TARVER-WHITE, CINDY EVETTE B F 43 24-253 ALCOHOL - OPEN CONTAINER OF AN ALCOHOLIC BEVERAGE IN ANY PUB
6/28/2016 1140 VAUGHAN, JOSEPH ANTHONY B M 50 24-253 ALCOHOL - OPEN CONTAINER OF AN ALCOHOLIC BEVERAGE IN ANY PUB
6/28/2016 1214 NORVELL, CARNELL RASHON B M 22 46.2-817|[M] ELUDING POLICE 2016008671
6/28/2016 1214 NORVELL, CARNELL RASHON B M 22 46.2-852 RECKLESS - GENERAL 2016008671
6/28/2016 1214 NORVELL, CARNELL RASHON B M 22 18.2-460|[M] OBSTRUCTING JUSTICE 2016008671
6/28/2016 1228 GRAY, BEVERLY ANN B F 39 18.2-57|[M] ASSAULT & BATTERY
6/28/2016 1302 EDMONDS, JAMES ARTHUR B M 53 18.2-456 CONTEMPT OF COURT
6/28/2016 1343 AGUIAR, MICHAEL W M 55 19.2-306|[F] REVOCATION OF SUSPENDED SENTENCE AND PROBATION
6/28/2016 1631 EDMONDS, JAMES ARTHUR B M 53 18.2-250|[F] POSSESSION OF CONTROLLED SUBSTANCES 2016008693
6/28/2016 1852 WHITEHEAD, TERICA VONET B F 26 18.2-456 CONTEMPT OF COURT
6/28/2016 12:06:00 AM 0006 GARLAND, KELSEY JAY B M 23 18.2-57|[M] ASSAULT & BATTERY 2016007875
6/28/2016 10:46:00 AM 1046 JARRIEL, CLINTON JOHN DAVID W M 36 18.2-456 CONTEMPT OF COURT
6/28/2016 10:50:00 AM 1050 CLARKE, DOROTHY DAY W F 39 18.2-152.4 COMPUTER TRESPASS
6/28/2016 10:50:00 AM 1050 CLARKE, DOROTHY DAY W F 39 18.2-137|[M] DESTRUCTION OF PROPERTY, GENERAL
6/28/2016 10:50:00 AM 1050 CLARKE, DOROTHY DAY W F 39 18.2-57.2|[M] ASSAULT & BATTERY - FAMILY MEMBER
6/29/2016 0055 ANDERSON, DAVID ELI W M 46 24-253 ALCOHOL - OPEN CONTAINER OF AN ALCOHOLIC BEVERAGE IN ANY PUB 2016008713
6/29/2016 0904 ADDISON, BOBBI L W F 37 3.2-6503 INADEQUATE CARE ANIMAL
6/29/2016 0930 BENSON, SOPHIA ALVETA B F 27 18.2-456 CONTEMPT OF COURT 7777238243
6/29/2016 1000 NORMAN, ANTHONY RAYMOND B M 27 18.2-95 GRAND LARCENY 2016008593
6/29/2016 1000 NORMAN, ANTHONY RAYMOND B M 27 18.2-164 UNLAWFUL USE OR INJURY TO TELEPHONE LINES 2016008593
6/29/2016 1007 GRAY, JON C W M 37 18.2-57.2|[M] ASSAULT & BATTERY - FAMILY MEMBER
6/29/2016 1225 FALZON, JOSEPH MICHAEL W M 34 18.2-456 CONTEMPT OF COURT 9999238248
6/29/2016 1442 TIGHE, MICHELLE LEE W F 41 18.2-456 CONTEMPT OF COURT
6/29/2016 1550 RUSAN, AAKE SUNJAHOD B M 18 19.2-99|[F] FUGITIVE FROM JUSTICE
6/29/2016 1607 TURNER, ASHEMA REGINA B F 29 19.2-128|[M] FAIL TO APPEAR ON MISDEMEANOR CHARGE
6/29/2016 1607 TURNER, ASHEMA REGINA B F 29 19.2-128|[M] FAIL TO APPEAR ON MISDEMEANOR CHARGE
6/29/2016 1607 TURNER, ASHEMA REGINA B F 29 18.2-456 CONTEMPT OF COURT
6/29/2016 1629 WILLIAMS, RAYMOND ERNEST B M 60 24-253 ALCOHOL - OPEN CONTAINER OF AN ALCOHOLIC BEVERAGE IN ANY PUB
6/29/2016 1640 MILES, JACQUELINE CHARLINE B F 55 18.2-96|[M] PETIT LARCENY 2016008737
6/29/2016 1750 ORAVETS, SABRINA JOY W F 31 18.2-456 CONTEMPT OF COURT
6/29/2016 1855 BYNUM, VELEDA ANN B F 39 18.2-456 CONTEMPT OF COURT
6/29/2016 1925 JONES, SHA`QUAYLA DAR`SHAY B F 22 18.2-137|[M] DESTRUCTION OF PROPERTY, GENERAL 2016008744
6/29/2016 2047 JUDE, ALFRED LYNN B M 45 19.2-306|[F] REVOCATION OF SUSPENDED SENTENCE AND PROBATION
6/29/2016 2100 RICHARDS, ROBERT THOMAS SR W M 31 24-253 ALCOHOL - OPEN CONTAINER OF AN ALCOHOLIC BEVERAGE IN ANY PUB 7777238270
6/29/2016 2225 KINGSBUR, LEUVINA VIRGINIA B F 28 19.2-306|[M] REVOCATION OF SUSPENDED SENTENCE AND PROBATION
6/29/2016 2225 KINGSBUR, LEUVINA VIRGINIA B F 28 19.2-306|[M] REVOCATION OF SUSPENDED SENTENCE AND PROBATION
6/29/2016 2225 KINGSBUR, LEUVINA VIRGINIA B F 28 19.2-306|[F] REVOCATION OF SUSPENDED SENTENCE AND PROBATION
6/29/2016 2225 KINGSBUR, LEUVINA VIRGINIA B F 28 18.2-250|[F] POSSESSION OF CONTROLLED SUBSTANCES 2016008747
6/29/2016 12:55:00 AM 0055 ANDERSON, DAVID ELI W M 46 24-258 PUBLIC DRUNKENNESS 2016008713
6/29/2016 7:08:00 AM 0708 SPELLER, IDA MAE B F 61 18.2-57|[M] ASSAULT & BATTERY 2016008674
6/29/2016 9:29:00 AM 0929 SWEAT, TYHEEM LAMONT B M 19 18.2-119 TRESPASSING 2016007807
6/29/2016 9:34:00 AM 0934 BALDWIN, MELONEE LA SHATT B F 39 18.2-427 PROFANE, THREATENING LANGUAGE OVER PUBLIC AIRWAY
6/29/2016 7:26:00 PM 1926 SPELLER, LESLIE JOVAN B F 36 19.2-128|[F] FAIL TO APPEAR ON FELONY CHARGE 9999238402
6/29/2016 7:26:00 PM 1926 SPELLER, LESLIE JOVAN B F 36 19.2-128|[F] FAIL TO APPEAR ON FELONY CHARGE 9999238402
6/30/2016 0019 CRAWFORD, DONTRAIL MARQUIS SR B M 34 18.2-456 CONTEMPT OF COURT
6/30/2016 0113 BROWN, LATOYA MICHELLE B F 31 18.2-266 DRIVING UNDER THE INFLUENCE OF ALCOHOL 2016008755
6/30/2016 0113 BROWN, LATOYA MICHELLE B F 31 46.2-894 ACCIDENTS - HIT AND RUN RESULTING IN INJURY AND/OR DEATH [FE 2016008755
6/30/2016 0140 WILLIAMS, KEVIN VON W M 43 24-258 PUBLIC DRUNKENNESS 2016008758
6/30/2016 0248 DRAKE, JORDAN MICHAEL W M 26 19.2-306|[M] REVOCATION OF SUSPENDED SENTENCE AND PROBATION
6/30/2016 0510 JOHNSON, JAMES LINZIE JR B M 44 19.2-100|[M] FUGITIVE FROM JUSTICE
6/30/2016 0510 JOHNSON, JAMES LINZIE JR B M 44 18.2-308.2 POSSESS, TRANSPORT FIREARMS BY CONVICTED FELONS 2016008753
6/30/2016 0510 JOHNSON, JAMES LINZIE JR B M 44 18.2-308.2 POSSESS, TRANSPORT FIREARMS BY CONVICTED FELONS 2016008753
6/30/2016 0510 JOHNSON, JAMES LINZIE JR B M 44 18.2-300 UNLAWFUL POSSESSION OR USE OF SAWED OFF SHOTGUN 2016008753
6/30/2016 0510 JOHNSON, JAMES LINZIE JR B M 44 18.2-248.1|[M] SALE, DISTRIBUTE MARIJUANA 2016008753
6/30/2016 0510 JOHNSON, JAMES LINZIE JR B M 44 18.2-311.1 REMOVE, ALTER SERIAL NUMBER ON FIREARM 2016008753
6/30/2016 0630 BLY, DENNIS MARQUISE B M 36 19.2-99|[F] FUGITIVE FROM JUSTICE 2016008766
6/30/2016 0644 MILLER, DONNA ELIZABETH W F 53 18.2-456 CONTEMPT OF COURT
6/30/2016 0948 MILLS, JUSTIN B M 50 18.2-96|[F] LARCENY OR THEFT (3RD OR SUBSQ OFFENSE)
6/30/2016 0954 WILLIAMS, JAMES DASHAWN B M 22 19.2-306|[F] REVOCATION OF SUSPENDED SENTENCE AND PROBATION
6/30/2016 1110 RIDDICK, LAMAR LAVONTE B M 25 18.2-456 CONTEMPT OF COURT
6/30/2016 1110 RIDDICK, LAMAR LAVONTE B M 25 18.2-119 TRESPASSING 2016005938
6/30/2016 1110 RIDDICK, LAMAR LAVONTE B M 25 18.2-460|[M] OBSTRUCTING JUSTICE 2016005938
6/30/2016 1115 ALLEN, BRIAN STEVEN B M 31 18.2-119 TRESPASSING
6/30/2016 1115 PROCTOR, SHELBY LYNNETTE W F 34 18.2-119 TRESPASSING
6/30/2016 1139 SKEETER, NELSON LAMANTE B M 31 19.2-306|[F] REVOCATION OF SUSPENDED SENTENCE AND PROBATION
6/30/2016 1151 BROWN, ODESSA PAPI`YON B F 26 19.2-306|[F] REVOCATION OF SUSPENDED SENTENCE AND PROBATION
6/30/2016 1212 BRENT, LORIN ANITA B F 48 18.2-456 CONTEMPT OF COURT
6/30/2016 1341 BOSTAIN, BARBARA JEAN W F 33 18.2-108|[F] RECEIVING STOLEN GOODS
6/30/2016 1519 REID-MERRITT, SPECIAL TASHA B F 22 18.2-57|[M] ASSAULT & BATTERY
6/30/2016 1624 LEE, STANLEY TRACY B M 53 1-200 COMMON LAW 2016008589
6/30/2016 1638 HILL, JEROME LEON B M 44 19.2-306|[F] REVOCATION OF SUSPENDED SENTENCE AND PROBATION
6/30/2016 1650 POWELL, ROOSEVELT JR B M 65 24-253 ALCOHOL - OPEN CONTAINER OF AN ALCOHOLIC BEVERAGE IN ANY PUB
6/30/2016 1811 WHITEHURST, STEPHEN LEE W M 37 18.2-91|[F] BREAKING & ENTER W/INT TO COMMIT FELONY 2016008788
6/30/2016 1811 WHITEHURST, STEPHEN LEE W M 37 18.2-94 POSSESSION OF BURGLARY TOOLS 2016008788
6/30/2016 1811 WHITEHURST, STEPHEN LEE W M 37 18.2-137|[M] DESTRUCTION OF PROPERTY, GENERAL 2016008788
6/30/2016 1811 WHITEHURST, STEPHEN LEE W M 37 18.2-250|[F] POSSESSION OF CONTROLLED SUBSTANCES 2016008788
6/30/2016 1811 WHITEHURST, STEPHEN LEE W M 37 18.2-250|[M] POSSESSION OF CONTROLLED SUBSTANCES 2016008788
6/30/2016 1934 PROCTOR, SHELBY LYNNETTE W F 34 18.2-187.1|[F] OBTAINING UTILITY SERVICE WITHOUT PAYMENT >=$200 2016008794
6/30/2016 1952 ALLEN, BRIAN STEVEN B M 31 18.2-187.1|[F] OBTAINING UTILITY SERVICE WITHOUT PAYMENT >=$200 2016008794
6/30/2016 2020 COOK, CURTIS LEE JR B M 30 18.2-57.2|[M] ASSAULT & BATTERY - FAMILY MEMBER 2016005307
6/30/2016 2020 COOK, CURTIS LEE JR B M 30 18.2-96|[M] PETIT LARCENY 2016005307
6/30/2016 2020 COOK, CURTIS LEE JR B M 30 19.2-128|[M] FAIL TO APPEAR ON MISDEMEANOR CHARGE
6/30/2016 2030 SPRATLEY, BARBARA JEAN B F 52 24-253 ALCOHOL - OPEN CONTAINER OF AN ALCOHOLIC BEVERAGE IN ANY PUB 7777238390
6/30/2016 2124 HARWOOD, BONNIE KATHLEEN W F 23 19.2-306|[F] REVOCATION OF SUSPENDED SENTENCE AND PROBATION 9999238680
6/30/2016 2230 WILLIAMS, DENISE CHANTEL B F 24 18.2-250.1 POSSESSION OF MARIJUANA 2016600881
6/30/2016 2253 PLACE, TERSHANE ANTHONY EUGENE B M 28 18.2-57|[F] ASSAULT & BATTERY 2016008812
6/30/2016 2300 ROSCOE, DOMINIC VERNON B M 23 18.2-250.1 POSSESSION OF MARIJUANA 7777238426
6/30/2016 2300 ROSCOE, DOMINIC VERNON B M 23 18.2-119 TRESPASSING 7777238426
6/30/2016 2348 ROSCOE, DOMINIC VERNON B M 23 18.2-91|[F] BREAKING & ENTER W/INT TO COMMIT FELONY 2016003148
6/30/2016 2348 ROSCOE, DOMINIC VERNON B M 23 18.2-57|[M] ASSAULT & BATTERY 2016003148
6/30/2016 2348 ROSCOE, DOMINIC VERNON B M 23 18.2-119 TRESPASSING 2016003148
6/30/2016 2:04:00 AM 0204 GRIFFIN, SHAWTINA B M 46 24-253 ALCOHOL - OPEN CONTAINER OF AN ALCOHOLIC BEVERAGE IN ANY PUB
6/30/2016 9:02:00 AM 0902 SIMMONS, LARRY LEE W M 50 18.2-456 CONTEMPT OF COURT
6/30/2016 8:35:00 PM 2035 THORNE, NATHAN ALPHONSO B M 62 24-253 ALCOHOL - OPEN CONTAINER OF AN ALCOHOLIC BEVERAGE IN ANY PUB 201600880
6/30/2016 8:44:00 PM 2044 JENKINS, DIONNE TERELLE B M 48 18.2-57.2|[M] ASSAULT & BATTERY - FAMILY MEMBER 2016008807
6/30/2016 9:05:00 PM 2105 DAVIS, ANTHONY B M 54 24-253 ALCOHOL - OPEN CONTAINER OF AN ALCOHOLIC BEVERAGE IN ANY PUB 2016008808
6/30/2016 10:15:00 PM 2215 BOOSE, SYLVESTER B M 55 18.2-95 GRAND LARCENY 2016007620
7/1/2016 0035 HAY, RACHEL MARIE W F 26 18.2-250|[F] POSSESSION OF CONTROLLED SUBSTANCES 2016008809
7/1/2016 0035 HAY, RACHEL MARIE W F 26 18.2-250|[F] POSSESSION OF CONTROLLED SUBSTANCES 2016008809
7/1/2016 0035 HAY, RACHEL MARIE W F 26 54.1-3466 POSSESS, DISTRIBUTE CONTROLLED PARAPHERNALIA 2016008809
7/1/2016 0107 BOONE, THOMASINE DENISE B F 55 22-25 LITTERING 2016008816
7/1/2016 0120 ASHWORTH, EDWARD JR W M 34 24-206 URINATE OR DEFECATE IN PUBLIC [CLASS 4 MISD] 2016008817
7/1/2016 0122 KEEL, KENNETH ANDRE B M 41 54.1-3466 POSSESS, DISTRIBUTE CONTROLLED PARAPHERNALIA 2016008809
7/1/2016 0122 KEEL, KENNETH ANDRE B M 41 18.2-250|[F] POSSESSION OF CONTROLLED SUBSTANCES 2016008809
7/1/2016 0122 KEEL, KENNETH ANDRE B M 41 18.2-456 CONTEMPT OF COURT
7/1/2016 0439 BYNUM, DONTE RAYNELL B M 27 19.2-306|[F] REVOCATION OF SUSPENDED SENTENCE AND PROBATION
7/1/2016 0439 BYNUM, DONTE RAYNELL B M 27 19.2-306|[F] REVOCATION OF SUSPENDED SENTENCE AND PROBATION
7/1/2016 0925 MEGINLEY, MICHAEL JAMES W M 65 18.2-57|[M] ASSAULT & BATTERY
7/1/2016 0925 MEGINLEY, MICHAEL JAMES W M 65 18.2-137|[M] DESTRUCTION OF PROPERTY, GENERAL
7/1/2016 1030 AMEEN, GERMAYEL RASHAD B M 33 18.2-60.4 [M] VIOLATION OF STALKING PROTECTIVE ORDER
7/1/2016 1152 SALMON, SEAN BRADLEY W M 27 18.2-137|[F] DESTRUCTION OF PROPERTY GENERAL -VALUE >=$1000 2016007339
7/1/2016 1152 SALMON, SEAN BRADLEY W M 27 18.2-95 GRAND LARCENY 2016007339
7/1/2016 1152 SALMON, SEAN BRADLEY W M 27 18.2-95 GRAND LARCENY 2016007339
7/1/2016 1409 EPPS, ANGELO MARKELLE B M 42 19.2-128|[M] FAIL TO APPEAR ON MISDEMEANOR CHARGE
7/1/2016 1538 WILLIAMS, ERION SAKARR B M 19 16.1-291 REVOCATION OR MODIFICATION OF PROBATION, PROTECTIVE SUPERVI
7/1/2016 1600 GILBERT, RICHARD WAYNE SR W M 52 24-258 PUBLIC DRUNKENNESS
7/1/2016 1902 HAY, RACHEL MARIE W F 26 18.2-250|[F] POSSESSION OF CONTROLLED SUBSTANCES
7/1/2016 2040 LAMBERT, MAKINDA SHEREESE B F 44 18.2-186.3 IDENTITY THEFT: USE TO AVOID ARREST 2016008864
7/1/2016 2254 BROWN, NIKITA TERRELL B F 29 18.2-52 INJURY - CAUSTIC AGENT, EXPLOSIVE OR FIRE 2016008869
7/1/2016 2254 BROWN, NIKITA TERRELL B F 29 18.2-89|[F] BURGLARY 2016008869
7/1/2016 3:24:00 AM 0324 POWELL, NATHANIEL LEE B M 33 COURTESY COURTESY HOLD
7/1/2016 10:58:00 AM 0001 WILLIAMS, RICKY CADETT B M 51 19.2-306|[F] REVOCATION OF SUSPENDED SENTENCE AND PROBATION 9999238305
7/1/2016 10:58:00 AM 0001 WILLIAMS, RICKY CADETT B M 51 19.2-306|[F] REVOCATION OF SUSPENDED SENTENCE AND PROBATION 9999238305
7/1/2016 10:58:00 AM 0001 WILLIAMS, RICKY CADETT B M 51 19.2-306|[F] REVOCATION OF SUSPENDED SENTENCE AND PROBATION 9999238305
7/1/2016 10:58:00 AM 1058 BROWN, WILLIAM EDWARD B M 45 18.2-456 CONTEMPT OF COURT
7/1/2016 10:58:00 AM 1221 MUSTIN, EMMANUEL DEWAYNE JR B M 21 18.2-456 CONTEMPT OF COURT
7/1/2016 10:58:00 AM 1221 MUSTIN, EMMANUEL DEWAYNE JR B M 21 18.2-456 CONTEMPT OF COURT
7/1/2016 4:20:00 PM 1620 CARTER, DAVON MONTAE LEE B M 20 19.2-306|[M] REVOCATION OF SUSPENDED SENTENCE AND PROBATION
7/2/2016 0218 HINTON, ANTIONNE B F 32 18.2-250.1 POSSESSION OF MARIJUANA 2016008876
7/2/2016 0448 GASKINS, MONESHA SHAWNTAL B F 25 18.2-57.2|[M] ASSAULT & BATTERY - FAMILY MEMBER 2016008873
7/2/2016 0448 GASKINS, MONESHA SHAWNTAL B F 25 18.2-137|[M] DESTRUCTION OF PROPERTY, GENERAL 2016008873
7/2/2016 0800 BATTLE, ROBERT FREDRICK JR B M 44 18.2-456 CONTEMPT OF COURT
7/2/2016 0800 WALKER, MICHAEL SHAQUILLE B M 22 19.2-306|[F] REVOCATION OF SUSPENDED SENTENCE AND PROBATION
7/2/2016 1400 POWELL, ROOSEVELT JR B M 65 18.2-119 TRESPASSING
7/2/2016 1430 RICKS, LEMAR WADE JR B M 27 18.2-57.2|[M] ASSAULT & BATTERY - FAMILY MEMBER 2016008898
7/2/2016 1430 CEPHUS, BRITTANY NICOLE B F 24 18.2-57.2|[M] ASSAULT & BATTERY - FAMILY MEMBER 2016008898
7/2/2016 1552 BRITT, ZACHARY WAYNE W M 22 18.2-57.2|[M] ASSAULT & BATTERY - FAMILY MEMBER 201600873
7/2/2016 1552 BRITT, ZACHARY WAYNE W M 22 18.2-51.6[F] STRANGULATION OF ANOTHER 2016008273
7/2/2016 1607 HARRIS, AARON GERON B M 33 18.2-456 CONTEMPT OF COURT 9999238533
7/2/2016 1650 TAYLOR, ANGELA DENISE W F 35 18.2-456 CONTEMPT OF COURT 9999238534
7/2/2016 1742 HUMPHREY, RENARD B M 61 18.2-456 CONTEMPT OF COURT
7/2/2016 1918 SWEESY, CYNTHIA MARTHA W F 34 4.1-305 UNLAWFUL PURCHASE OR POSSESS ALCOHOLIC BEVERAGE 2016008899
7/2/2016 1918 SWEESY, CYNTHIA MARTHA W F 34 18.2-371 CONTRIBUTING TO THE DELINQUENCY OF A MINOR 2016008899
7/2/2016 1918 SWEESY, CYNTHIA MARTHA W F 34 24-258 PUBLIC DRUNKENNESS 2016008899
7/2/2016 2027 LEE, KAIVON LUVELL B M 21 18.2-57|[F] ASSAULT & BATTERY 2016008877
7/2/2016 2027 LEE, KAIVON LUVELL B M 21 18.2-57|[F] ASSAULT & BATTERY 2016008877
7/2/2016 2027 LEE, KAIVON LUVELL B M 21 18.2-119 TRESPASSING 2016008877
7/2/2016 2027 LEE, KAIVON LUVELL B M 21 18.2-479.1 RESISTING ARREST 2016008877
7/2/2016 2027 LEE, KAIVON LUVELL B M 21 18.2-460|[M] OBSTRUCTING JUSTICE 2016008877
7/2/2016 2110 GASKILL, BRANDON MARCEL W M 25 18.2-250|[F] POSSESSION OF CONTROLLED SUBSTANCES 2016008903
7/2/2016 2110 GASKILL, BRANDON MARCEL W M 25 46.2-301 DRIVING W/SUSPENDED OR REVOKED LICENSE 2016008903
7/2/2016 2130 WHITE, WILLIAM CARR JR W M 31 29.1-740|[M] FAILURE OF BOAT OPERATOR TO RENDER ASSISTANCE 7777238338
7/2/2016 2130 WHITE, WILLIAM CARR JR W M 31 29.1-740|[M] FAILURE OF BOAT OPERATOR TO RENDER ASSISTANCE 7777238337
7/2/2016 2324 BURDEN, LEE VERNON JR B M 57 18.2-456 CONTEMPT OF COURT
7/2/2016 10:11:00 AM 1011 HOOVER, MILTON HARVEY W M 45 19.2-306|[F] REVOCATION OF SUSPENDED SENTENCE AND PROBATION 9999238370
7/2/2016 10:11:00 AM 1011 HOOVER, MILTON HARVEY W M 45 19.2-306|[F] REVOCATION OF SUSPENDED SENTENCE AND PROBATION 9999238370
7/2/2016 10:11:00 AM 1011 HOOVER, MILTON HARVEY W M 45 19.2-306|[F] REVOCATION OF SUSPENDED SENTENCE AND PROBATION
7/2/2016 10:11:00 AM 1011 HOOVER, MILTON HARVEY W M 45 19.2-306|[F] REVOCATION OF SUSPENDED SENTENCE AND PROBATION
7/3/2016 0002 WHITE, WILLIAM CARR JR W M 31 29.1-738.2 CONSENT TO BLOOD OR BREATH TEST
7/3/2016 0002 WHITE, WILLIAM CARR JR W M 31 18.2-266|[M] DRIVING UNDER THE INFLUENCE OF ALCOHOL
7/3/2016 0254 KELLO, KEITH ANTHONY B M 26 18.2-308|[M] CARRYING CONCEALED WEAPON -1ST OFFENSE 2016008914
7/3/2016 0254 KELLO, KEITH ANTHONY B M 26 18.2-308|[M] CARRYING CONCEALED WEAPON -1ST OFFENSE 2016008914
7/3/2016 0254 KELLO, KEITH ANTHONY B M 26 18.2-308.2 POSSESS, TRANSPORT FIREARMS BY CONVICTED FELONS 2016008914
7/3/2016 0255 JONES, ERIC PERCELL JR B M 24 18.2-250.1 POSSESSION OF MARIJUANA 2016008918
7/3/2016 0352 JONES, ERIC PERCELL JR B M 24 19.2-306|[M] REVOCATION OF SUSPENDED SENTENCE AND PROBATION
7/3/2016 0459 SUTTON, ANTYRONE LAVON B M 33 18.2-137|[M] DESTRUCTION OF PROPERTY, GENERAL 2016008913
7/3/2016 0459 SUTTON, ANTYRONE LAVON B M 33 18.2-95 GRAND LARCENY 2016008913
7/3/2016 0459 SUTTON, ANTYRONE LAVON B M 33 18.2-95 GRAND LARCENY 2016008913
7/3/2016 0810 EURE, TIQ`UAN DERON B M 23 18.2-456 CONTEMPT OF COURT
7/3/2016 0810 EURE, TIQ`UAN DERON B M 23 18.2-272 DRIVING AFTER FORFEITURE OF LICENSE FELONY 2016008921
7/3/2016 0810 EURE, TIQ`UAN DERON B M 23 18.2-102|[F] UNAUTHORIZED USE OF VEHICLE, BOAT OR ANIMAL 2016008921
7/3/2016 0810 EURE, TIQ`UAN DERON B M 23 18.2-57.2|[M] ASSAULT & BATTERY - FAMILY MEMBER 2016008917
7/3/2016 1351 PHILLIPS, SHIRLMEIKA LAKESHA B F 41 18.2-96|[M] PETIT LARCENY 2016008930
7/3/2016 1807 MASON, SHANNON PAULA W F 39 18.2-96|[M] PETIT LARCENY
7/3/2016 1807 MASON, SHANNON PAULA W F 39 18.2-429 ANNOYING PHONE CALLS
7/3/2016 2055 GODWIN, RONALD JEROME B M 68 18.2-266 DRIVING UNDER THE INFLUENCE OF ALCOHOL 2016008941
7/3/2016 12:17:00 PM 1217 BOONE, LORENZO ANTONIO B M 25 18.2-308.2 POSSESS, TRANSPORT FIREARMS BY CONVICTED FELONS 2016001073
7/3/2016 2:20:00 PM 1420 ROSS, BRANDAN MICHELLE W F 25 19.2-128|[M] FAIL TO APPEAR ON MISDEMEANOR CHARGE
7/4/2016 0001 CRIST, SHANE MICHAEL W M 29 18.2-57.2|[M] ASSAULT & BATTERY - FAMILY MEMBER 2016008942
7/4/2016 0001 CRIST, SHANE MICHAEL W M 29 18.2-250.1 POSSESSION OF MARIJUANA 2016008942
7/4/2016 0011 GODWIN, RONALD JEROME B M 68 18.2-250.1 POSSESSION OF MARIJUANA 2016008941
7/4/2016 0011 GODWIN, RONALD JEROME B M 68 18.2-266.1 DRIVING AFTER ILLEGALLY CONSUMING ALCOHOL 2016008941
7/4/2016 0011 GODWIN, RONALD JEROME B M 68 18.2-268.3 REFUSE BLOOD/BREATH TEST 2016008941
7/4/2016 0149 BERN, ASHLEY SUE W F 26 18.2-250.1 POSSESSION OF MARIJUANA 2016008946
7/4/2016 0325 SPENCER, KERRY TERRELL B M 47 18.2-57.2|[M] ASSAULT & BATTERY - FAMILY MEMBER 2016008948
7/4/2016 0325 SPENCER, KERRY TERRELL B M 47 18.2-57.2|[M] ASSAULT & BATTERY - FAMILY MEMBER 2016008948
7/4/2016 0330 SIMMONS, ANTWON LAMONT B M 31 18.2-456 CONTEMPT OF COURT
7/4/2016 0330 SIMMONS, ANTWON LAMONT B M 31 18.2-456 CONTEMPT OF COURT
7/4/2016 0417 HANDLON, VERONICA JULIETTE W F 28 18.2-427 PROFANE, THREATENING LANGUAGE OVER PUBLIC AIRWAY
7/4/2016 1022 JOHNSON, JAMES EDWARD W M 62 18.2-57|[M] ASSAULT & BATTERY 7777238351
7/4/2016 1907 COPELAND, LAWANA NICOLE B F 35 18.2-137|[M] DESTRUCTION OF PROPERTY, GENERAL
7/4/2016 2019 GOODMAN, DONNISHA TYVETTE B F 19 18.2-137|[M] DESTRUCTION OF PROPERTY, GENERAL 2016006894
7/4/2016 12:02:00 AM 0002 CHRISTIAN, DEXTER ANTHONY B M 23 18.2-456 CONTEMPT OF COURT
7/4/2016 11:18:00 AM 1118 SIMPSON, ALICIA L B F 23 18.2-456 CONTEMPT OF COURT
7/4/2016 9:26:00 PM 2126 VEAL, STEVIE LEE B M 38 18.2-456 CONTEMPT OF COURT
7/5/2016 0147 FULLERTON, CHARLES EUGENE III W M 60 18.2-266|[F] DUI - THIRD OR SUBSEQUENT OFFENSE 2016008986
7/5/2016 0147 FULLERTON, CHARLES EUGENE III W M 60 18.2-308|[M] CARRYING CONCEALED WEAPON -1ST OFFENSE 2016008986
7/5/2016 0147 FULLERTON, CHARLES EUGENE III W M 60 46.2-357(B)(1) OPERATE MOTOR VEH - HABIT OFFENDR NO ENDANGERMENT 2016008986
7/5/2016 0147 FULLERTON, CHARLES EUGENE III W M 60 46.2-301 DRIVING W/SUSPENDED OR REVOKED LICENSE 2016008986
7/5/2016 0147 FULLERTON, CHARLES EUGENE III W M 60 18.2-272 DRIVING AFTER FORFEITURE OF LICENSE FELONY 2016008986
7/5/2016 0220 WALLACE, MARY ELIZABETH B F 50 46.2-894 ACCIDENTS - HIT AND RUN RESULTING IN INJURY AND/OR DEATH [FE 2016008984
7/5/2016 0250 TUBBS, JA`RON EUGENE B M 27 18.2-250.1 POSSESSION OF MARIJUANA 2016008992
7/5/2016 0330 SUTTON, TORIANDO CARVELLO B M 42 18.2-456 CONTEMPT OF COURT
7/5/2016 0409 TUBBS, JA`RON EUGENE B M 27 18.2-456 CONTEMPT OF COURT
7/5/2016 1039 BLEVINS, MATTHEW COLE W M 22 18.2-137|[M] DESTRUCTION OF PROPERTY, GENERAL 2016008999
7/5/2016 1100 RICHARDSON, DARRELL JAMES B M 59 33.1-346 DUMPING TRASH ON HIGHWAY OR PRIVATE PROPERTY
7/5/2016 1316 ELLISON, CLARENCE VANEMAN IV W M 32 18.2-91|[F] BREAKING & ENTER W/INT TO COMMIT FELONY 2016000948
7/5/2016 1316 ELLISON, CLARENCE VANEMAN IV W M 32 18.2-95 GRAND LARCENY 2016000948
7/5/2016 1316 ELLISON, CLARENCE VANEMAN IV W M 32 18.2-96|[M] PETIT LARCENY 2016000948
7/5/2016 1316 ELLISON, CLARENCE VANEMAN IV W M 32 18.2-96|[M] PETIT LARCENY 2016000948
7/5/2016 1316 ELLISON, CLARENCE VANEMAN IV W M 32 18.2-96|[M] PETIT LARCENY 2016000948
7/5/2016 1316 ELLISON, CLARENCE VANEMAN IV W M 32 18.2-96|[M] PETIT LARCENY 2016000948
7/5/2016 1316 ELLISON, CLARENCE VANEMAN IV W M 32 18.2-96|[M] PETIT LARCENY 2016000948
7/5/2016 1316 ELLISON, CLARENCE VANEMAN IV W M 32 18.2-137|[M] DESTRUCTION OF PROPERTY, GENERAL 2016000948
7/5/2016 1409 TYLER, LACRESHA RENEE B F 28 18.2-172 FORGING, UTTERING 2016007746
7/5/2016 1409 TYLER, LACRESHA RENEE B F 28 18.2-111|[F] EMBEZZLEMENT >=$200 2016007746
7/5/2016 1409 TYLER, LACRESHA RENEE B F 28 18.2-96|[M] PETIT LARCENY 2016007746
7/5/2016 1444 SMALL, MICHAEL BYRON B M 63 18.2-456 CONTEMPT OF COURT
7/5/2016 1447 LIGHTFOOT, ERIC MARQUEL B M 29 18.2-456 CONTEMPT OF COURT
7/5/2016 1710 BRITT, LEMUEL DEMONTE SR B M 42 18.2-456 CONTEMPT OF COURT
7/5/2016 1754 HOWARD, CHASITY LYNN W F 41 19.2-306|[M] REVOCATION OF SUSPENDED SENTENCE AND PROBATION
7/5/2016 1823 MALDONADO, REGINA LYNN W F 44 46.2-894 ACCIDENTS - HIT AND RUN RESULTING IN INJURY AND/OR DEATH [FE 2016009006
7/5/2016 1823 MALDONADO, REGINA LYNN W F 44 46.2-852 RECKLESS - GENERAL 2016009006
7/5/2016 1823 MALDONADO, REGINA LYNN W F 44 46.2-613 VEHICLE REGISTRATION VIOLATIONS 2016009006
7/5/2016 1823 MALDONADO, REGINA LYNN W F 44 46.2-613 VEHICLE REGISTRATION VIOLATIONS 2016009006
7/5/2016 1852 SEALS, RONALD ANTOINE B M 44 18.2-456 CONTEMPT OF COURT
7/5/2016 2144 MCMANUS, KENNETH THOMAS W M 65 18.2-57|[M] ASSAULT & BATTERY 2016008094
7/5/2016 2225 WALKER, TRINITY MATEO B M 42 4.1-308 DRINKING ALCOHOL IN PUBLIC
7/5/2016 1:41:00 AM 0141 ROSEBORO, ANTONIO DELAMONTE B M 29 19.2-128|[M] FAIL TO APPEAR ON MISDEMEANOR CHARGE
7/5/2016 1:56:00 AM 0156 SHANKIN, JAMIL MAREE B F 33 18.2-181|[M] ISSUING BAD CHECKS (<$200) 2015000889
7/5/2016 1:56:00 AM 0156 SHANKIN, JAMIL MAREE B F 33 18.2-178|[F] OBTAINING MONEY BY FALSE PRETENSES 2015000889
7/5/2016 9:40:00 AM 0940 BATTS, DAVID BURTON B M 51 19.2-306|[F] REVOCATION OF SUSPENDED SENTENCE AND PROBATION
7/5/2016 9:40:00 AM 0940 DREW, TROY DEWYON B M 40 19.2-306|[F] REVOCATION OF SUSPENDED SENTENCE AND PROBATION
7/6/2016 0008 TAYLOR, ERNESTINE B F 57 18.2-57.2|[M] ASSAULT & BATTERY - FAMILY MEMBER 2016009038
7/6/2016 0027 HUGGINS, QUINTON LEE B M 57 19.2-306|[F] REVOCATION OF SUSPENDED SENTENCE AND PROBATION
7/6/2016 0200 BROWN, TIMOTHY GLENDALE B M 35 4.1-305 UNLAWFUL PURCHASE OR POSSESS ALCOHOLIC BEVERAGE 2016009041
7/6/2016 0200 BROWN, TIMOTHY GLENDALE B M 35 18.2-388 PUBLIC SWEARING OR INTOXICATION 2016009041
7/6/2016 0356 WALTON, NOAH MACKLIN JR B M 29 18.2-119 TRESPASSING 2016009046
7/6/2016 0356 WALTON, NOAH MACKLIN JR B M 29 18.2-388 PUBLIC SWEARING OR INTOXICATION 2016009046
7/6/2016 0740 PATTERSON, TATIANNE MARY B F 22 18.2-57.2|[M] ASSAULT & BATTERY - FAMILY MEMBER 2016009042
7/6/2016 0951 FINNEY, SHA-KIYLA TIJUANA B F 25 18.2-172 FORGING, UTTERING 2016000399
7/6/2016 0951 FINNEY, SHA-KIYLA TIJUANA B F 25 18.2-178|[F] OBTAINING MONEY BY FALSE PRETENSES 2016000399
7/6/2016 1055 MCKIVER, SHAUNTAE DELORES B F 23 18.2-57.2|[M] ASSAULT & BATTERY - FAMILY MEMBER 2016009050
7/6/2016 1122 MURRELL, JARVIS CORNELIUS B M 27 18.2-57.2|[M] ASSAULT & BATTERY - FAMILY MEMBER 2016009050
7/6/2016 1205 DAVID, DAQWON KEON B M 24 19.2-306|[F] REVOCATION OF SUSPENDED SENTENCE AND PROBATION
7/6/2016 1205 DAVID, DAQWON KEON B M 24 19.2-306|[F] REVOCATION OF SUSPENDED SENTENCE AND PROBATION
7/6/2016 1205 DAVID, DAQWON KEON B M 24 19.2-306|[F] REVOCATION OF SUSPENDED SENTENCE AND PROBATION
7/6/2016 1205 DAVID, DAQWON KEON B M 24 19.2-306|[F] REVOCATION OF SUSPENDED SENTENCE AND PROBATION
7/6/2016 1245 COPELAND, GARNET B M 50 18.2-456 CONTEMPT OF COURT
7/6/2016 1419 CUFFEE, ANTHONY PIERRE B M 56 19.2-306|[F] REVOCATION OF SUSPENDED SENTENCE AND PROBATION
7/6/2016 1433 SPELLER, IDA MAE B F 61 18.2-57|[M] ASSAULT & BATTERY 2016008997
7/6/2016 1435 QUIMBY, JAMAL MARQUEL B M 30 8.01-508 FAIL TO APPEAR ON CIVIL MATTER
7/6/2016 1440 JONES, DESHAWN LAMAR B M 25 18.2-57.2|[M] ASSAULT & BATTERY - FAMILY MEMBER
7/6/2016 1548 LEE, JARAY LAMONTE B M 26 18.2-57.2|[M] ASSAULT & BATTERY - FAMILY MEMBER 2016008919
7/6/2016 1548 LEE, JARAY LAMONTE B M 26 18.2-119 TRESPASSING 2016008919
7/6/2016 1615 DAVIS, TORREAN JOSEF B M 25 18.2-456 CONTEMPT OF COURT
7/6/2016 1617 WALKER, JACORI LAMONT B M 21 18.2-172 FORGING, UTTERING 2016007746
7/6/2016 1617 WALKER, JACORI LAMONT B M 21 18.2-172 FORGING, UTTERING 2016007746
7/6/2016 1617 WALKER, JACORI LAMONT B M 21 18.2-26 ATTEMPT TO COMMIT NONCAPITAL OFFENSE 2016007746
7/6/2016 2020 WITHEROW, LINETA CHRISTIAN W F 56 19.2-306|[F] REVOCATION OF SUSPENDED SENTENCE AND PROBATION
7/6/2016 2020 WITHEROW, LINETA CHRISTIAN W F 56 19.2-306|[F] REVOCATION OF SUSPENDED SENTENCE AND PROBATION
7/6/2016 2020 WITHEROW, LINETA CHRISTIAN W F 56 19.2-306|[F] REVOCATION OF SUSPENDED SENTENCE AND PROBATION
7/6/2016 2057 TERRY, PHILLIP ALAN W M 55 4-31 DOG AT LARGE
7/6/2016 2346 GATLING, JAMES AVESTER JR B M 56 19.2-128|[M] FAIL TO APPEAR ON MISDEMEANOR CHARGE
7/6/2016 6:39:00 PM 1839 MATTOCKS, RICHIE VALENTINO B M 55 18.2-119 TRESPASSING
7/6/2016 6:45:00 PM 1845 THOMAS, JOSHUA JOHN W M 39 18.2-96|[M] PETIT LARCENY 2016009073
7/7/2016 0410 JACKSON, TERRI WOOD B F 49 18.2-416 USING ABUSIVE LANGUAGE
7/7/2016 0410 JACKSON, TERRI WOOD B F 49 18.2-416 USING ABUSIVE LANGUAGE
7/7/2016 0410 JACKSON, TERRI WOOD B F 49 18.2-137|[M] DESTRUCTION OF PROPERTY, GENERAL
7/7/2016 0710 THORNE, JASMEN SINCHEZ B F 27 3.2-6503 INADEQUATE CARE ANIMAL
7/7/2016 0710 THORNE, JASMEN SINCHEZ B F 27 3.2-6503 INADEQUATE CARE ANIMAL
7/7/2016 0910 THORNE, JASMEN SINCHEZ B F 27 3.2-6503 INADEQUATE CARE ANIMAL
7/7/2016 0910 THORNE, JASMEN SINCHEZ B F 27 4-61 CITY DOG LICENSE REQUIREMENT
7/7/2016 0910 THORNE, JASMEN SINCHEZ B F 27 4-96 FAILURE TO ACQUIRE RABIES VACCINATION
7/7/2016 0910 THORNE, JASMEN SINCHEZ B F 27 3.2-6503 INADEQUATE CARE ANIMAL
7/7/2016 1122 BUTLER, FREDRICK LAMONT B M 32 19.2-99|[F] FUGITIVE FROM JUSTICE
7/7/2016 1204 JENKINS, ALQUAVIS SHONNON B M 34 18.2-96|[M] PETIT LARCENY 2016009100
7/7/2016 1215 WHITE, RYAN JAMAAL B M 35 18.2-456 CONTEMPT OF COURT
7/7/2016 1233 PALMER, TONY VOLINTINO B M 49 18.2-456 CONTEMPT OF COURT
7/7/2016 1330 MARTIN, KEOSHA LACHERL B F 25 19.2-82.1 FALSE IDENTIFY SELF TO LAW ENFORCEMENT 2016009096
7/7/2016 1330 MARTIN, KEOSHA LACHERL B F 25 18.2-186.3 IDENTITY THEFT: USE TO AVOID ARREST 2016009096
7/7/2016 1543 FLOWERS, TYRELL B M 18 18.2-91|[F] BREAKING & ENTER W/INT TO COMMIT FELONY 2016007747
7/7/2016 1543 FLOWERS, TYRELL B M 18 18.2-95 GRAND LARCENY 2016007747
7/7/2016 1543 FLOWERS, TYRELL B M 18 18.2-108.01 STOLEN PROPERTY: W/ INTENT TO SELL, LARCENY>$200 2016007747
7/7/2016 1543 FLOWERS, TYRELL B M 18 18.2-178|[M] OBTAINING MONEY BY FALSE PRETENSES 2016007747
7/7/2016 1553 BARHAM, CATRINA REBECCA B F 33 24-258 PUBLIC DRUNKENNESS 2016009109
7/7/2016 1642 MONTOYA, ANTHONY GREGORY W M 23 18.2-248|[F] MANUF, SALE, POSSESSION CONTROLLED SUBSTANCE 2016003715
7/7/2016 1642 MONTOYA, ANTHONY GREGORY W M 23 18.2-308.4 POSSESS FIREARM WHILE IN POSSESSION OF DRUGS 2016003715
7/7/2016 1642 MONTOYA, ANTHONY GREGORY W M 23 18.2-91|[F] BREAKING & ENTER W/INT TO COMMIT FELONY 2016003715
7/7/2016 1721 CULP, ROBERT JAMES W M 40 18.2-250.1 POSSESSION OF MARIJUANA 2016009119
7/7/2016 1817 BRYANT, JARRELL LAMONT B M 22 18.2-137|[F] DESTRUCTION OF PROPERTY GENERAL -VALUE >=$1000 2016008741
7/7/2016 2105 HALL, LESTER THOMAS JR B M 51 46.2-357|[F] OPERATE MOTOR VEH - HABITUAL OFFENDER
7/7/2016 2125 SMITH, WILLIAM ALEXANDER B M 49 18.2-248|[F] MANUF, SALE, POSSESSION CONTROLLED SUBSTANCE
7/7/2016 2141 CROSBY, KEENAN AARON B M 25 18.2-308.2 POSSESS, TRANSPORT FIREARMS BY CONVICTED
7/7/2016 2147 PERRY CRANDLE, MYLEEK DEANGELO B M 23 46.2-613 VEHICLE REGISTRATION VIOLATIONS 2016009129
7/7/2016 2147 PERRY CRANDLE, MYLEEK DEANGELO B M 23 18.2-250.1 POSSESSION OF MARIJUANA 2016009129
7/7/2016 2147 PERRY CRANDLE, MYLEEK DEANGELO B M 23 46.2-722 ALTER OR FORGE LICENSE PLATE OR DECAL 2016009129
7/7/2016 2154 MACK, DOMINIQUE ANTOINE B M 36 18.2-456 CONTEMPT OF COURT
7/7/2016 2206 MYRICK, DARYL DUJUAN B M 39 19.2-306|[F] REVOCATION OF SUSPENDED SENTENCE AND PROBATION
7/7/2016 11:04:00 AM 1104 MCCRAY, SAKIRAH MECCA B F 24 18.2-96|[M] PETIT LARCENY 2016005658
7/7/2016 11:04:00 AM 1104 MCCRAY, SAKIRAH MECCA B F 24 18.2-96|[M] PETIT LARCENY 2016005658
7/8/2016 0005 ALVARENGA, LUIS ANTONIO W M 35 18.2-57.2|[M] ASSAULT & BATTERY - FAMILY MEMBER 2016009130
7/8/2016 0408 JOYNER, LONNIE THOMAS B M 58 19.2-306|[F] REVOCATION OF SUSPENDED SENTENCE AND PROBATION
7/8/2016 0408 JOYNER, LONNIE THOMAS B M 58 19.2-306|[F] REVOCATION OF SUSPENDED SENTENCE AND PROBATION
7/8/2016 0408 JOYNER, LONNIE THOMAS B M 58 19.2-306|[F] REVOCATION OF SUSPENDED SENTENCE AND PROBATION
7/8/2016 0408 JOYNER, LONNIE THOMAS B M 58 19.2-306|[F] REVOCATION OF SUSPENDED SENTENCE AND PROBATION
7/8/2016 0408 JOYNER, LONNIE THOMAS B M 58 19.2-306|[F] REVOCATION OF SUSPENDED SENTENCE AND PROBATION
7/8/2016 0408 JOYNER, LONNIE THOMAS B M 58 19.2-306|[F] REVOCATION OF SUSPENDED SENTENCE AND PROBATION
7/8/2016 0408 JOYNER, LONNIE THOMAS B M 58 19.2-306|[F] REVOCATION OF SUSPENDED SENTENCE AND PROBATION
7/8/2016 1037 CLARK, KELVIN DEWAYNE B M 23 18.2-456 CONTEMPT OF COURT
7/8/2016 1205 BASS, ROBERT SHANE W M 23 18.2-57|[M] ASSAULT & BATTERY 2016009027
7/8/2016 1230 RODGERS, JOVONDA JUNIUS B M 34 46.2-301 DRIVING W/SUSPENDED OR REVOKED LICENSE
7/8/2016 1230 RODGERS, JOVONDA JUNIUS B M 34 19.2-128|[M] FAIL TO APPEAR ON MISDEMEANOR CHARGE
7/8/2016 1306 LAMONT, KEBA TARIK B M 22 18.2-248|[F] MANUF, SALE, POSSESSION CONTROLLED SUBSTANCE
7/8/2016 1306 LAMONT, KEBA TARIK B M 22 18.2-248|[F] MANUF, SALE, POSSESSION CONTROLLED SUBSTANCE
7/8/2016 1402 KEYES, DAYMON BLIAR B M 18 18.2-95 GRAND LARCENY 2016009134
7/8/2016 1402 KEYES, DAYMON BLIAR B M 18 18.2-95 GRAND LARCENY 2016009134
7/8/2016 1402 KEYES, DAYMON BLIAR B M 18 18.2-308|[M] CARRYING CONCEALED WEAPON -1ST OFFENSE 2016009134
7/8/2016 1402 KEYES, DAYMON BLIAR B M 18 18.2-146 TAMPERING WITH VEHICLE 2016009134
7/8/2016 1402 KEYES, DAYMON BLIAR B M 18 18.2-146 TAMPERING WITH VEHICLE 2016009134
7/8/2016 1402 KEYES, DAYMON BLIAR B M 18 18.2-96|[M] PETIT LARCENY 2016009134
7/8/2016 1502 PEELE, JAMECIA LATRICE B F 26 18.2-456 CONTEMPT OF COURT
7/8/2016 1654 LEE, DANYELLE AKOYA B M 35 19.2-306|[F] REVOCATION OF SUSPENDED SENTENCE AND PROBATION
7/8/2016 1708 EALEY, LAMAR DONTE B M 29 18.2-51.2 AGGRAVATED MALICIOUS WOUNDING
7/8/2016 1708 EALEY, LAMAR DONTE B M 29 18.2-53.1 USE OR DISPLAY FIREARM IN COMMISSION OF FELONY
7/8/2016 1720 VAUGHAN, KIMBERLY RENEE B F 44 19.2-306|[F] REVOCATION OF SUSPENDED SENTENCE AND PROBATION
7/8/2016 1720 VAUGHAN, KIMBERLY RENEE B F 44 19.2-306|[F] REVOCATION OF SUSPENDED SENTENCE AND PROBATION
7/8/2016 2050 BENNETT, MICHAEL HEMMINGWAY B M 28 18.2-456 CONTEMPT OF COURT
7/8/2016 2112 KAZALSKI, DAVID JORDAN W M 33 18.2-57.2|[M] ASSAULT & BATTERY - FAMILY MEMBER 2016009163
7/8/2016 2219 LEARY, TWINA ANITA B F 49 18.2-57|[M] ASSAULT & BATTERY
7/8/2016 2327 ROGERS, MICHAEL RYAN W M 30 18.2-57.2|[M] ASSAULT & BATTERY - FAMILY MEMBER 2016009170
7/8/2016 2330 TALIAFERRO, JAMES CLIFTON B M 38 18.2-460|[M] OBSTRUCTING JUSTICE
7/8/2016 2330 TALIAFERRO, JAMES CLIFTON B M 38 18.2-250.1|[M] POSSESSION OF MARIJUANA 2016009175
7/8/2016 2337 WILLIAMS, TERRANCE LINARD B M 37 18.2-250.1 POSSESSION OF MARIJUANA 2016009175
7/9/2016 0238 BOONE, CHARLES B M 65 18.2-52 INJURY - CAUSTIC AGENT, EXPLOSIVE OR FIRE 2016009174
7/9/2016 0525 WHITAKER, DESHAWN RAY B M 21 24-258 PUBLIC DRUNKENNESS 2016009185
7/9/2016 0729 WHITE, ANTHONY JAMES B M 33 18.2-51 FELONIOUS ASSAULT 2016009178
7/9/2016 0850 LEE, KAIVON LUVELL B M 21 18.2-57|[F] ASSAULT & BATTERY 2016009193
7/9/2016 1100 ALSTON, AVIANCE YASMINE ANNETTE B F 20 18.2-371.1 ABUSE AND NEGLECT OF CHILDREN
7/9/2016 1530 KING, ANDREW BELL JR B M 62 18.2-96|[M] PETIT LARCENY 2016009207
7/9/2016 1646 BUNCH, JOHN DEMETRIUS B M 24 18.2-456 CONTEMPT OF COURT
7/9/2016 1726 JONES, BRYAN DEONTRA B M 26 18.2-170 FORGING COIN AND BANK NOTES
7/9/2016 1726 JONES, BRYAN DEONTRA B M 26 18.2-172 FORGING, UTTERING
7/9/2016 1726 JONES, BRYAN DEONTRA B M 26 18.2-178|[F] OBTAINING MONEY BY FALSE PRETENSES
7/9/2016 1744 COPELAND, SYMONE DANIELLE B F 23 19.2-306|[M] REVOCATION OF SUSPENDED SENTENCE AND PROBATION
7/9/2016 1817 MASON, JAMES ANTHONY B M 51 18.2-96|[F] LARCENY OR THEFT (3RD OR SUBSQ OFFENSE) 2015016461
7/9/2016 1817 MASON, JAMES ANTHONY B M 51 18.2-57|[M] ASSAULT & BATTERY 2016009032
7/9/2016 1817 MASON, JAMES ANTHONY B M 51 18.2-427 PROFANE, THREATENING LANGUAGE OVER PUBLIC AIRWAY 2016009032
7/9/2016 2135 GIBSON, NATALIE ANNE W F 46 19.2-306|[F] REVOCATION OF SUSPENDED SENTENCE AND PROBATION
7/9/2016 2135 GIBSON, NATALIE ANNE W F 46 19.2-306|[F] REVOCATION OF SUSPENDED SENTENCE AND PROBATION
7/9/2016 2208 WHITE, TIMOTHY PAUL W M 45 18.2-57|[M] ASSAULT & BATTERY 2015016647
7/9/2016 2208 WHITE, TIMOTHY PAUL W M 45 18.2-57.2|[M] ASSAULT & BATTERY - FAMILY MEMBER 2015016647
7/9/2016 2305 BARHAM, JAMES LEE JR B M 34 19.2-306|[F] REVOCATION OF SUSPENDED SENTENCE AND PROBATION
7/9/2016 2305 BARHAM, JAMES LEE JR B M 34 18.2-47 ABDUCTION & KIDNAPPING
7/9/2016 2305 BARHAM, JAMES LEE JR B M 34 18.2-58 ROBBERY
7/9/2016 2305 BARHAM, JAMES LEE JR B M 34 18.2-53.1 USE OR DISPLAY FIREARM IN COMMISSION OF FELONY
7/9/2016 2305 BARHAM, JAMES LEE JR B M 34 18.2-58 ROBBERY
7/9/2016 2305 BARHAM, JAMES LEE JR B M 34 18.2-53.1 USE OR DISPLAY FIREARM IN COMMISSION OF FELONY
7/9/2016 2305 BARHAM, JAMES LEE JR B M 34 18.2-47 ABDUCTION & KIDNAPPING
7/9/2016 2305 BARHAM, JAMES LEE JR B M 34 18.2-53.1 USE OR DISPLAY FIREARM IN COMMISSION OF FELONY
7/9/2016 2305 BARHAM, JAMES LEE JR B M 34 18.2-53.1 USE OR DISPLAY FIREARM IN COMMISSION OF FELONY
7/9/2016 2353 DELINSKI, THOMAS JAY W M 43 18.2-271.1 PROBATION, EDUCATION AND REHABILITATION OF PERSON CHARGED
7/9/2016 9:50:00 PM 2150 WORRELL, AARON PHILLIP B M 31 24-253 ALCOHOL - OPEN CONTAINER OF AN ALCOHOLIC BEVERAGE IN ANY PUB
7/10/2016 0129 YATES, LAWRENCE WILLIAM YONG W M 33 18.2-308|[M] CARRYING CONCEALED WEAPON -1ST OFFENSE 2016009221
7/10/2016 0129 YATES, LAWRENCE WILLIAM YONG W M 33 24-258 PUBLIC DRUNKENNESS 2016009221
7/10/2016 0144 BROWN, RASHAUD ISAAC B M 22 24-258 PUBLIC DRUNKENNESS 2016009225
7/10/2016 0232 FAISON, ADELENE P B F 38 18.2-266|[M] DRIVING UNDER THE INFLUENCE OF ALCOHOL 2016009223
7/10/2016 0232 FAISON, ADELENE P B F 38 46.2-301 DRIVING W/SUSPENDED OR REVOKED LICENSE 2016009223
7/10/2016 0635 GRIFFIN, TRAVIS LAMONT JR B M 21 18.2-266.1 DRIVING AFTER ILLEGALLY CONSUMING ALCOHOL 2016009233
7/10/2016 0635 GRIFFIN, TRAVIS LAMONT JR B M 21 18.2-272[M] DRIVING AFTER FORFEITURE OF LICENSE 2016009233
7/10/2016 0635 GRIFFIN, TRAVIS LAMONT JR B M 21 18.2-272[M] DRIVING AFTER FORFEITURE OF LICENSE 2016009233
7/10/2016 0945 SUBLETT, COREY ALONZO B M 35 18.2-91|[F] BREAKING & ENTER W/INT TO COMMIT FELONY 2016009236
7/10/2016 2224 PITTMAN, CLEVIN ANTHONY B M 50 18.2-57.2|[M] ASSAULT & BATTERY - FAMILY MEMBER
7/10/2016 2224 PITTMAN, CLEVIN ANTHONY B M 50 18.2-119 TRESPASSING
7/10/2016 2224 PITTMAN, CLEVIN ANTHONY B M 50 18.2-89|[F] BURGLARY 2016009234
7/10/2016 2224 PITTMAN, CLEVIN ANTHONY B M 50 18.2-95 GRAND LARCENY 2016009234
7/10/2016 2224 PITTMAN, CLEVIN ANTHONY B M 50 18.2-95 GRAND LARCENY 2016009234
7/10/2016 2224 PITTMAN, CLEVIN ANTHONY B M 50 18.2-95 GRAND LARCENY 2016009234
7/10/2016 2224 PITTMAN, CLEVIN ANTHONY B M 50 18.2-308.2 POSSESS, TRANSPORT FIREARMS BY CONVICTED FELONS 2016009234
7/10/2016 5:02:00 PM 1702 CUFFEE, CLAYTON CORNELL B M 28 18.2-57|[M] ASSAULT & BATTERY 2016007973
7/10/2016 5:02:00 PM 1702 CUFFEE, CLAYTON CORNELL B M 28 18.2-57|[M] ASSAULT & BATTERY 2016007973
7/11/2016 0019 ZARLENGO, BOBBY KEITH JR W M 43 18.2-57.2|[F] ASSAULT & BATTERY - FAMILY MEMBER (3RD OFFENSE) 2016000480
7/11/2016 0129 MORRIS, ELIAS III B M 51 18.2-456 CONTEMPT OF COURT
7/11/2016 0141 CARR, STEVEN RANDOLPH W M 56 18.2-111|[F] EMBEZZLEMENT >=$200
7/11/2016 0141 CARR, STEVEN RANDOLPH W M 56 18.2-178|[M] OBTAINING MONEY BY FALSE PRETENSES
7/11/2016 0141 CARR, STEVEN RANDOLPH W M 56 18.2-178|[M] OBTAINING MONEY BY FALSE PRETENSES
7/11/2016 0141 CARR, STEVEN RANDOLPH W M 56 18.2-178|[M] OBTAINING MONEY BY FALSE PRETENSES
7/11/2016 0326 HAWKINS, DONITA MARIE B F 39 18.2-456 CONTEMPT OF COURT 2016009258
7/11/2016 0326 HAWKINS, DONITA MARIE B F 39 18.2-250|[F] POSSESSION OF CONTROLLED SUBSTANCES 2016009258
7/11/2016 0437 HINES, WILLIAM WINSTON B M 64 18.2-57|[M] ASSAULT & BATTERY 2016009250
7/11/2016 0437 HINES, WILLIAM WINSTON B M 64 18.2-57|[M] ASSAULT & BATTERY 2016009250
7/11/2016 0637 ROSS, COURTNEY TREMELL SR B M 31 18.2-119 TRESPASSING
7/11/2016 0637 ROSS, COURTNEY TREMELL SR B M 31 19.2-152.10 PROTECTIVE ORDER
7/11/2016 0717 JOHNSON, STEPHEN ROMERO B M 31 18.2-456 CONTEMPT OF COURT 7777-238511
7/11/2016 0730 MARSHALL, SHEENA MARIE B F 23 18.2-57|[M] ASSAULT & BATTERY 2016009264
7/11/2016 0929 BRICKHOUSE, BARRY JAY B M 46 18.2-456 CONTEMPT OF COURT
7/11/2016 0946 WORRELL, RICHARD HENRY IV W M 27 18.2-96|[F] LARCENY OR THEFT (3RD OR SUBSQ OFFENSE)
7/11/2016 1038 JONES, HAROLD ANSARA B M 43 18.2-456 CONTEMPT OF COURT
7/11/2016 1139 PHILLIPS, SHIRLMEIKA LAKESHA B F 41 18.2-456 CONTEMPT OF COURT
7/11/2016 1235 DAWSON, SHENIQUA MARIE B F 25 18.2-42 ASSAULT OR BATTERY BY MOB
7/11/2016 1456 LOWE, JIMMY W M 42 18.2-67.3 AGGRAVATED SEXUAL BATTERY
7/11/2016 1456 LOWE, JIMMY W M 42 18.2-67.3 AGGRAVATED SEXUAL BATTERY
7/11/2016 1456 LOWE, JIMMY W M 42 18.2-370.1 INDECENT LIBERTIES WITH CHILD BY CUSTODIAN
7/11/2016 1656 CECIL, MICHAEL THOMAS II W M 41 18.2-456 CONTEMPT OF COURT
7/11/2016 1729 MUNDAY, JESSE BARRETT W M 22 54.1-3466 POSSESS, DISTRIBUTE CONTROLLED PARAPHERNALIA 2016009276
7/11/2016 1729 MUNDAY, JESSE BARRETT W M 22 46.2-300 NO DRIVERS LICENSE 2016009276
7/11/2016 1729 MUNDAY, JESSE BARRETT W M 22 18.2-266 DRIVING UNDER THE INFLUENCE OF ALCOHOL 2016009276
7/11/2016 1729 MUNDAY, JESSE BARRETT W M 22 46.2-894 ACCIDENTS - HIT AND RUN RESULTING IN INJURY AND/OR DEATH [FE 2016009276
7/11/2016 1729 MUNDAY, JESSE BARRETT W M 22 18.2-250|[F] POSSESSION OF CONTROLLED SUBSTANCES 2016009276
7/11/2016 1809 CREDLE, DARRYL DION B M 34 18.2-57|[M] ASSAULT & BATTERY 2016008911
7/11/2016 1830 BROWN, CHERRELL LYNN B F 26 18.2-137|[M] DESTRUCTION OF PROPERTY, GENERAL 2015010264
7/11/2016 1830 BROWN, CHERRELL LYNN B F 26 1-200 COMMON LAW 2015010264
7/11/2016 1921 SAWYER, BRANDON WALLACE B M 31 18.2-427 PROFANE, THREATENING LANGUAGE OVER PUBLIC AIRWAY
7/11/2016 1921 SAWYER, BRANDON WALLACE B M 31 18.2-416 USING ABUSIVE LANGUAGE
7/11/2016 2136 GRINSTON, DEMARREA MICHAEL B M 20 18.2-103|[M] CONCEALMENT, PRICE ALTER MERCHANDISE <$200
7/11/2016 2136 GRINSTON, DEMARREA MICHAEL B M 20 18.2-371 CONTRIBUTING TO THE DELINQUENCY OF A MINOR
7/11/2016 10:27:00 AM 1027 LEONARD, RANDY LEE W M 40 18.2-57|[M] ASSAULT & BATTERY 2016008679
7/11/2016 10:27:00 AM 1029 OLIVER, GWENDOLYN LAVERNE B F 58 18.2-60.4 [M] VIOLATION OF STALKING PROTECTIVE ORDER
7/12/2016 0011 DEITER, CHARLES ANTHONY W M 31 18.2-250|[F] POSSESSION OF CONTROLLED SUBSTANCES 2016007798
7/12/2016 0011 DEITER, CHARLES ANTHONY W M 31 54.1-3466 POSSESS, DISTRIBUTE CONTROLLED PARAPHERNALIA 2016007798
7/12/2016 0443 DAVIS, KEITH WAYNE B M 57 18.2-119 TRESPASSING
7/12/2016 0528 HARRIS, JAMETRIUS WILLIAM B M 20 18.2-119 TRESPASSING 2016009320
7/12/2016 0528 HARRIS, JAMETRIUS WILLIAM B M 20 18.2-415 DISORDERLY CONDUCT 2016009320
7/12/2016 0556 NIXON, MICHAEL JERMAINE B M 40 18.2-250|[F] POSSESSION OF CONTROLLED SUBSTANCES 2016009318
7/12/2016 0556 NIXON, MICHAEL JERMAINE B M 40 18.2-460|[M] OBSTRUCTING JUSTICE 2016009318
7/12/2016 0556 NIXON, MICHAEL JERMAINE B M 40 16.1-278.16 FAIL TO COMPLY WITH SUPPORT OBLIGATIONS
7/12/2016 0556 NIXON, MICHAEL JERMAINE B M 40 19.2-306|[F] REVOCATION OF SUSPENDED SENTENCE AND PROBATION
7/12/2016 0556 NIXON, MICHAEL JERMAINE B M 40 19.2-306|[M] REVOCATION OF SUSPENDED SENTENCE AND PROBATION
7/12/2016 0710 BENNETT, ANDREW WALTER W M 25 18.2-460|[M] OBSTRUCTING JUSTICE 2016009324
7/12/2016 0845 BENNETT, ANDREW WALTER W M 25 18.2-95 GRAND LARCENY
7/12/2016 0845 BENNETT, ANDREW WALTER W M 25 18.2-95 GRAND LARCENY
7/12/2016 0845 BENNETT, ANDREW WALTER W M 25 18.2-95 GRAND LARCENY
7/12/2016 0845 BENNETT, ANDREW WALTER W M 25 18.2-103|[F] CONCEALMENT, PRICE ALTER MERCHANDISE >=$200
7/12/2016 0845 BENNETT, ANDREW WALTER W M 25 18.2-479.1 RESISTING ARREST
7/12/2016 0845 BENNETT, ANDREW WALTER W M 25 46.2-301 DRIVING W/SUSPENDED OR REVOKED LICENSE
7/12/2016 0845 BENNETT, ANDREW WALTER W M 25 46.2-1003 USE UNSAFE EQUIPMENT
7/12/2016 0946 REID, ERNEST EUGENE JR B M 52 18.2-456 CONTEMPT OF COURT
7/12/2016 1000 TURNER, RANDY AUGUSTA B M 54 24-253 ALCOHOL - OPEN CONTAINER OF AN ALCOHOLIC BEVERAGE IN ANY PUB 2016009333
7/12/2016 1002 THORNE, LLOYD MARVIN B M 50 19.2-128|[F] FAIL TO APPEAR ON FELONY CHARGE
7/12/2016 1005 LEE, SAMUEL EUGENE B M 65 24-253 ALCOHOL - OPEN CONTAINER OF AN ALCOHOLIC BEVERAGE IN ANY PUB 2016009332
7/12/2016 1006 LYNCH, RONALD JR B M 21 18.2-170 FORGING COIN AND BANK NOTES 2016004034
7/12/2016 1006 LYNCH, RONALD JR B M 21 18.2-172 FORGING, UTTERING 2016004034
7/12/2016 1006 LYNCH, RONALD JR B M 21 18.2-178|[F] OBTAINING MONEY BY FALSE PRETENSES 2016004034
7/12/2016 1010 POWELL, CLARENCE GREGORY B M 49 24-253 ALCOHOL - OPEN CONTAINER OF AN ALCOHOLIC BEVERAGE IN ANY PUB 2016009330
7/12/2016 1025 WATSON, VICKI ANN W F 60 24-253 ALCOHOL - OPEN CONTAINER OF AN ALCOHOLIC BEVERAGE IN ANY PUB 2016009335
7/12/2016 1030 PITTMAN, NATHANIEL WOOD SR B M 63 24-253 ALCOHOL - OPEN CONTAINER OF AN ALCOHOLIC BEVERAGE IN ANY PUB 2016009334
7/12/2016 1124 KEE, KATRINA LAWSON B F 66 18.2-271.1 PROBATION, EDUCATION AND REHABILITATION
7/12/2016 1124 KEE, KATRINA LAWSON B F 66 19.2-306|[M] REVOCATION OF SUSPENDED SENTENCE AND PROBATION
7/12/2016 1145 CHANCE, ALAN PAUL W M 52 18.2-456 CONTEMPT OF COURT
7/12/2016 1208 ELLIOTT, AUDREY LEE B F 26 18.2-57|[M] ASSAULT & BATTERY
7/12/2016 1225 BOWDEN, ROBERT KITT W M 30 19.2-306|[M] REVOCATION OF SUSPENDED SENTENCE AND PROBATION
7/12/2016 1230 LIVERMON, KIMBERLY EVETTE B F 47 18.2-95 GRAND LARCENY
7/12/2016 1309 CHANCE, ALAN PAUL W M 52 46.2-357|[F] OPERATE MOTOR VEH - HABITUAL OFFENDER
7/12/2016 1345 ADAMS, ANTHONY TYRONE B M 59 18.2-96|[F] LARCENY OR THEFT (3RD OR SUBSQ OFFENSE) 2016009338
7/12/2016 1353 ADAMS, ANTHONY TYRONE B M 59 18.2-96|[F] LARCENY OR THEFT (3RD OR SUBSQ OFFENSE) 2016009338
7/12/2016 1447 SANTOS, BRYAN JOHN W M 27 18.2-51 FELONIOUS ASSAULT
7/12/2016 1447 SANTOS, BRYAN JOHN W M 27 18.2-137|[M] DESTRUCTION OF PROPERTY, GENERAL
7/12/2016 1510 COLTRANE, TASHAWN MANDELLE B M 28 18.2-57.2|[M] ASSAULT & BATTERY - FAMILY MEMBER 2016009312
7/12/2016 1514 WRIGHT, DEREK ANTHONY B M 38 46.2-301 DRIVING W/SUSPENDED OR REVOKED LICENSE
7/12/2016 1536 BRITT, BRYAN MICHAEL W M 32 22-18 DISTRIBUTION SOLICITATION SALES ON HIGHWAYS ROADWAYS 7777238558
7/12/2016 1715 BOONE, SHANIKQUA MONIQUE B F 27 18.2-456 CONTEMPT OF COURT
7/12/2016 1736 HATCH, QURAN RASUL B M 19 18.2-96|[M] PETIT LARCENY
7/12/2016 1736 HATCH, QURAN RASUL B M 19 18.2-137|[M] DESTRUCTION OF PROPERTY, GENERAL
7/12/2016 1736 HATCH, QURAN RASUL B M 19 18.2-91|[F] BREAKING & ENTER W/INT TO COMMIT FELONY 2016007608
7/12/2016 1736 HATCH, QURAN RASUL B M 19 18.2-91|[F] BREAKING & ENTER W/INT TO COMMIT FELONY 2016007608
7/12/2016 1736 HATCH, QURAN RASUL B M 19 18.2-95 GRAND LARCENY 2016007608
7/12/2016 1736 HATCH, QURAN RASUL B M 19 18.2-95 GRAND LARCENY 2016007608
7/12/2016 1736 HATCH, QURAN RASUL B M 19 18.2-108.01 STOLEN PROPERTY: W/ INTENT TO SELL, LARC 2016007608
7/12/2016 1736 HATCH, QURAN RASUL B M 19 18.2-108.01 STOLEN PROPERTY: W/ INTENT TO SELL, LARC 2016007608
7/12/2016 1736 HATCH, QURAN RASUL B M 19 18.2-178|[M] OBTAINING MONEY BY FALSE PRETENSES 2016007608
7/12/2016 1736 HATCH, QURAN RASUL B M 19 18.2-178|[M] OBTAINING MONEY BY FALSE PRETENSES 2016007608
7/12/2016 1736 HATCH, QURAN RASUL B M 19 18.2-178|[M] OBTAINING MONEY BY FALSE PRETENSES 2016007608
7/12/2016 1839 SPELLER, CLARENCE CARVELL B M 52 24-253 ALCOHOL - OPEN CONTAINER OF AN ALCOHOLIC BEVERAGE IN ANY PUB 2016009331
7/12/2016 2002 FAULKNER, KARA MARIE W F 25 18.2-250|[F] POSSESSION OF CONTROLLED SUBSTANCES 2016009372
7/12/2016 2002 FAULKNER, KARA MARIE W F 25 18.2-250|[F] POSSESSION OF CONTROLLED SUBSTANCES 2016009372
7/12/2016 2002 FAULKNER, KARA MARIE W F 25 54.1-3466 POSSESS, DISTRIBUTE CONTROLLED PARAPHERNALIA 2016009372
7/12/2016 2031 PURDIE, ANDREA CRYSTAL B F 30 18.2-57|[M] ASSAULT & BATTERY
7/12/2016 2150 CHRISTOPHER, TONI DANYLLE W F 27 18.2-456 CONTEMPT OF COURT
7/12/2016 2202 MOORE, NIA KATRICE B F 39 16.1-278.16 FAIL TO COMPLY WITH SUPPORT OBLIGATIONS
7/12/2016 6:50:00 PM 1850 JAMES, KAYLA LACHELLE B F 24 18.2-57.2|[M] ASSAULT & BATTERY - FAMILY MEMBER 2016009312
7/12/2016 7:15:00 PM 1915 BARKSDALE, SUE B F 36 18.2-279 DISCHARGE FIREARM OR MISSILE IN/AT OCCUPIED BLDG 2014000874
7/12/2016 7:15:00 PM 1915 BARKSDALE, SUE B F 36 18.2-279 DISCHARGE FIREARM OR MISSILE IN/AT OCCUPIED BLDG 2014000874
7/12/2016 7:15:00 PM 1915 BARKSDALE, SUE B F 36 18.2-137|[F] DESTRUCTION OF PROPERTY GENERAL -VALUE >=$1000 2014000874
7/12/2016 7:16:00 PM 1400 WILSON, JOHN ARTHUR B M 51 18.2-178|[F] OBTAINING MONEY BY FALSE PRETENSES 2015008441
7/12/2016 7:16:00 PM 1400 WILSON, JOHN ARTHUR B M 51 18.2-200.1|[F] FAILURE TO PERFORM CONSTRUCTION AFTER ADVANCE 2015008441
7/12/2016 7:16:00 PM 1916 WATERS, MARVIN LEE B M 23 18.2-95 GRAND LARCENY 2016000419
7/13/2016 1217 CHERRY, RONALD BENTLEY B M 54 18.2-456 CONTEMPT OF COURT
7/13/2016 1321 WAIDEN, FREDRIC J U M 57 3.2-6504 ABANDONMENT OF ANIMAL
7/13/2016 1421 WHITE, RODNEY ALONZO B M 41 19.2-306|[F] REVOCATION OF SUSPENDED SENTENCE AND PROBATION
7/13/2016 1421 WHITE, RODNEY ALONZO B M 41 19.2-306|[F] REVOCATION OF SUSPENDED SENTENCE AND PROBATION
7/13/2016 1629 CHERRY, RONALD BENTLEY B M 54 18.2-456 CONTEMPT OF COURT
7/13/2016 1729 SAUNDERS, KELLEY DUNN W F 30 18.2-111|[F] EMBEZZLEMENT >=$200 2015005595
7/13/2016 1729 SAUNDERS, KELLEY DUNN W F 30 18.2-111|[F] EMBEZZLEMENT >=$200 2015005595
7/13/2016 1729 SAUNDERS, KELLEY DUNN W F 30 18.2-111|[F] EMBEZZLEMENT >=$200 2015005595
7/13/2016 1729 SAUNDERS, KELLEY DUNN W F 30 18.2-111|[F] EMBEZZLEMENT >=$200 2015005595
7/13/2016 1729 SAUNDERS, KELLEY DUNN W F 30 18.2-111|[F] EMBEZZLEMENT >=$200 2015005595
7/13/2016 1729 SAUNDERS, KELLEY DUNN W F 30 18.2-111|[F] EMBEZZLEMENT >=$200 2015005595
7/13/2016 1745 MORGAN, KIMBERLY LACHANDA B F 29 18.2-57.2|[M] ASSAULT & BATTERY - FAMILY MEMBER
7/13/2016 1749 VALENTINE, JHAMIE TREQUAN B M 18 18.2-58 ROBBERY 2016009345
7/13/2016 1749 VALENTINE, JHAMIE TREQUAN B M 18 18.2-22 CONSPIRACY TO COMMIT FELONY 2016009345
7/13/2016 1952 TAYLOR, MARC SIMS W M 43 18.2-250|[F] POSSESSION OF CONTROLLED SUBSTANCES 2016009421
7/13/2016 2005 MOSELEY, CALVIN DEANGELO B M 48 24-253 ALCOHOL - OPEN CONTAINER OF AN ALCOHOLIC BEVERAGE IN ANY PUB 2016009430
7/13/2016 2014 HYMAN, ARLENE DENISE B F 37 18.2-102|[F] UNAUTHORIZED USE OF VEHICLE, BOAT OR ANIMAL 2016003091
7/13/2016 2050 NICHOLS, DEVIYON MARQUETTE B M 24 18.2-308.2 POSSESS, TRANSPORT FIREARMS BY CONVICTED FELONS 2016009425
7/13/2016 2201 CROSS, DARRELL CLEVELAND B M 37 24-253 ALCOHOL - OPEN CONTAINER OF AN ALCOHOLIC BEVERAGE IN ANY PUB 2016009434
7/13/2016 2226 OUTTEN, ALONZO DEVON B M 35 19.2-306|[F] REVOCATION OF SUSPENDED SENTENCE AND PROBATION
7/13/2016 9:01:00 AM 0901 CROSS, ERIC MARCEL B M 48 PB-15 PAROLE BOARD WARRANT - PB15
7/14/2016 0525 WILLIAMS, REBECCA ANNA W F 49 18.2-250|[F] POSSESSION OF CONTROLLED SUBSTANCES 2016009440
7/14/2016 0525 WILLIAMS, REBECCA ANNA W F 49 18.2-250|[F] POSSESSION OF CONTROLLED SUBSTANCES 2016009440
7/14/2016 0525 WILLIAMS, REBECCA ANNA W F 49 18.2-308.2 POSSESS, TRANSPORT FIREARMS BY CONVICTED FELONS 2016009440
7/14/2016 0525 WILLIAMS, REBECCA ANNA W F 49 54.1-3466 POSSESS, DISTRIBUTE CONTROLLED PARAPHERNALIA 2016009440
7/14/2016 0912 ALLEN, EDWARD CARLTON IV W M 29 19.2-306|[F] REVOCATION OF SUSPENDED SENTENCE AND PROBATION
7/14/2016 0912 ALLEN, EDWARD CARLTON IV W M 29 19.2-306|[F] REVOCATION OF SUSPENDED SENTENCE AND PROBATION
7/14/2016 0948 SEXTON, KEVON DONTE B M 23 18.2-119 TRESPASSING
7/14/2016 1104 HILL, DAYTON STEVEN W M 20 18.2-51 FELONIOUS ASSAULT
7/14/2016 1300 EVANS, MELVIN JR B M 42 16.1-278.16 FAIL TO COMPLY WITH SUPPORT OBLIGATIONS
7/14/2016 1500 WILLIAMSON, BRYANT SPENCER JR B M 27 19.2-128|[F] FAIL TO APPEAR ON FELONY CHARGE
7/14/2016 1518 AYERS, SARAH PAULETTE W F 44 18.2-96|[F] LARCENY OR THEFT (3RD OR SUBSQ OFFENSE) 2016009458
7/14/2016 1520 FOULKES, DAVID THOMAS W M 21 18.2-51 FELONIOUS ASSAULT
7/14/2016 1625 ALLEN, BRIAN STEVEN B M 31 18.2-456 CONTEMPT OF COURT
7/14/2016 1931 HOWARD, AUSTIN LEE B M 33 46.2-301 DRIVING W/SUSPENDED OR REVOKED LICENSE
7/14/2016 1954 PERRY, JACOB THOMAS W M 18 18.2-456 CONTEMPT OF COURT
7/14/2016 2105 SPELLER, CLARENCE CARVELL B M 52 24-253 ALCOHOL - OPEN CONTAINER OF AN ALCOHOLIC BEVERAGE IN ANY PUB 2016009485
7/14/2016 2105 MADISON, NORMAN LEO B M 63 24-253 ALCOHOL - OPEN CONTAINER OF AN ALCOHOLIC BEVERAGE IN ANY PUB 2016009486
7/14/2016 2108 BOWEN, JOSHUA LEE B M 18 18.2-57.2|[M] ASSAULT & BATTERY - FAMILY MEMBER 2016009479
7/14/2016 2120 HAILES, RICKY EARL B M 47 24-253 ALCOHOL - OPEN CONTAINER OF AN ALCOHOLIC BEVERAGE IN ANY PUB 2016009491
7/14/2016 2157 WHITE, MARCUS PURCELL B M 51 19.2-306|[F] REVOCATION OF SUSPENDED SENTENCE AND PROBATION
7/14/2016 2157 WHITE, MARCUS PURCELL B M 51 19.2-306|[F] REVOCATION OF SUSPENDED SENTENCE AND PROBATION
7/14/2016 2157 WHITE, MARCUS PURCELL B M 51 19.2-306|[F] REVOCATION OF SUSPENDED SENTENCE AND PROBATION
7/14/2016 2300 DIXON, CALVIN OMAR B M 46 24-253 ALCOHOL - OPEN CONTAINER OF AN ALCOHOLIC BEVERAGE IN ANY PUB 2016009492
7/14/2016 11:38:00 AM 1138 SMITH, JEREMIAH SAMUEL W M 38 18.2-456 CONTEMPT OF COURT
7/14/2016 10:54:00 PM 2254 BURRELL, BRANDON SHERWOOD B M 31 18.2-456 CONTEMPT OF COURT
7/15/2016 0240 VREEN, ANTWON CARLOS B M 51 18.2-456 CONTEMPT OF COURT
7/15/2016 0355 RYLAND, ANDRE YARNELL B M 27 46.2-301 DRIVING W/SUSPENDED OR REVOKED LICENSE 2016009496
7/15/2016 0355 RYLAND, ANDRE YARNELL B M 27 18.2-248.1|[M] SALE, DISTRIBUTE MARIJUANA 2016009496
7/15/2016 0355 RYLAND, ANDRE YARNELL B M 27 18.2-248.1:1[F] POSSESSION WITH INTENT TO DISTRIBUTE SYNTHETIC CANNABINOIDS 2016009496
7/15/2016 0355 RYLAND, ANDRE YARNELL B M 27 46.2-830 FAIL TO OBEY SIGNS/ BOND SURRENDER/ IMPROP EQUIP 2016009496
7/15/2016 0457 MORGAN, ROBBIE JOHN W M 24 19.2-100|[F] FUGITIVE FROM JUSTICE 2016009506
7/15/2016 0619 BOONE-THOMAS, LEVETTA SHEVETTA B F 38 18.2-456 CONTEMPT OF COURT
7/15/2016 0915 JENKINS, NENA SHAREE` B F 35 18.2-96|[M] PETIT LARCENY 2016009513
7/15/2016 1014 HOWARD, JENNIFER MORRIS W F 48 18.2-96|[F] LARCENY OR THEFT (3RD OR SUBSQ OFFENSE) 2016009509
7/15/2016 1133 BROWN, MICHAEL ANTHONY SR B M 55 18.2-456 CONTEMPT OF COURT
7/15/2016 1133 BROWN, MICHAEL ANTHONY SR B M 55 18.2-102|[F] UNAUTHORIZED USE OF VEHICLE, BOAT OR ANIMAL
7/15/2016 1200 WILLIAMS, PETER JR B M 58 18.2-308.2 POSSESS, TRANSPORT FIREARMS BY CONVICTED
7/15/2016 1445 HOLT, WILLIE HAYWOOD III B M 23 18.2-456 CONTEMPT OF COURT
7/15/2016 1800 POWELL, ROOSEVELT JR B M 65 18.2-456 CONTEMPT OF COURT
7/15/2016 2026 RIVERA, ANGEL MANUEL W M 24 18.2-58 ROBBERY 2016009526
7/15/2016 2026 RIVERA, ANGEL MANUEL W M 24 18.2-53.1 USE OR DISPLAY FIREARM IN COMMISSION OF FELONY 2016009526
7/15/2016 2243 BUTLER, MICHAEL ANTHONY JR B M 19 19.2-128|[M] FAIL TO APPEAR ON MISDEMEANOR CHARGE
7/15/2016 2338 SMALLWOOD, JONATHAN ADAM W M 33 18.2-250|[F] POSSESSION OF CONTROLLED SUBSTANCES 2016009541
7/15/2016 9:03:00 AM 0903 WILCOX, MICHAEL DAWAYNE B M 47 18.2-456 CONTEMPT OF COURT
7/15/2016 10:20:00 AM 1020 WILLIAMS, MALIK RASHAD B M 19 18.2-371 CONTRIBUTING TO THE DELINQUENCY OF A MINOR
7/15/2016 11:00:00 AM 1100 WORTHINGTON, DAYNA NICOLE B F 19 18.2-456 CONTEMPT OF COURT
7/15/2016 2:20:00 PM 1420 JOHNSON, LAVANE B M 61 35-410 FAIL TO PAY FOOD TAX
7/15/2016 2:20:00 PM 1420 JOHNSON, LAVANE B M 61 35-410 FAIL TO PAY FOOD TAX
7/16/2016 0117 BROWN, MICHAEL TREYVON B M 21 18.2-266 DRIVING UNDER THE INFLUENCE OF ALCOHOL 2016009546
7/16/2016 0145 PARKER, TYRONE B M 62 16.1-278.16 FAIL TO COMPLY WITH SUPPORT OBLIGATIONS
7/16/2016 0220 TAYLOR, KYLE CHRISTOPHER W M 22 18.2-266|[M] DRIVING UNDER THE INFLUENCE OF ALCOHOL 2016009549
7/16/2016 0500 CONLEY, STEVEN MICHAEL W M 23 18.2-266 DRIVING UNDER THE INFLUENCE OF ALCOHOL 2016009553
7/16/2016 0515 SIMPSON, MICHAEL DEQUAN B M 25 18.2-51 FELONIOUS ASSAULT 2016009551
7/16/2016 0515 SIMPSON, MICHAEL DEQUAN B M 25 18.2-119 TRESPASSING 2016009551
7/16/2016 0515 SIMPSON, MICHAEL DEQUAN B M 25 18.2-47 ABDUCTION & KIDNAPPING 2016009551
7/16/2016 0515 SIMPSON, MICHAEL DEQUAN B M 25 18.2-57.2|[M] ASSAULT & BATTERY - FAMILY MEMBER 2016009551
7/16/2016 0555 BISHOP, NORMAN STANLEY B M 39 18.2-456 CONTEMPT OF COURT
7/16/2016 0555 BISHOP, NORMAN STANLEY B M 39 19.2-306|[F] REVOCATION OF SUSPENDED SENTENCE AND PROBATION
7/16/2016 0555 BISHOP, NORMAN STANLEY B M 39 18.2-456 CONTEMPT OF COURT
7/16/2016 0555 BISHOP, NORMAN STANLEY B M 39 18.2-456 CONTEMPT OF COURT
7/16/2016 0812 PITT, ANTONIO CORNELIUS B M 47 19.2-128|[M] FAIL TO APPEAR ON MISDEMEANOR CHARGE 7777238628
7/16/2016 1145 BOWDEN, ROBERT KITT W M 30 54.1-3466 POSSESS, DISTRIBUTE CONTROLLED PARAPHERNALIA 2016009558
7/16/2016 1145 BOWDEN, ROBERT KITT W M 30 18.2-250|[F] POSSESSION OF CONTROLLED SUBSTANCES 2016009558
7/16/2016 1237 PHILLIPS, AUTUMN MARIE W F 20 18.2-95 GRAND LARCENY
7/16/2016 1945 MOORE, ZEAQUAN RAMONE B M 18 18.2-57.2|[M] ASSAULT & BATTERY - FAMILY MEMBER 2016009578
7/16/2016 2132 HURDLE, STERLING GERARD B M 57 18.2-95 GRAND LARCENY 2013012725
7/16/2016 2132 HURDLE, STERLING GERARD B M 57 18.2-108.01 STOLEN PROPERTY: W/ INTENT TO SELL, LARCENY>$200 2013012725
7/16/2016 2132 HURDLE, STERLING GERARD B M 57 18.2-178|[M] OBTAINING MONEY BY FALSE PRETENSES 2013012725
7/16/2016 10:30:00 PM 2230 JONES, HEATHER DENISE W F 25 18.2-57.2|[F] ASSAULT & BATTERY - FAMILY MEMBER (3RD OFFENSE) 2016009588
7/17/2016 0355 ADINOLFI, ANTONIO NELSON W M 24 24-258 PUBLIC DRUNKENNESS 2016009598
7/17/2016 0805 HILL, RAYMOND ALEXANDER B M 60 18.2-57.2|[F] ASSAULT & BATTERY - FAMILY MEMBER (3RD OFFENSE) 2016009604
7/17/2016 0839 DARDEN, NANCY KINGSBUR B F 56 18.2-57.2|[M] ASSAULT & BATTERY - FAMILY MEMBER 2016009604
7/17/2016 0919 EDGERSON, JONATHAN MICHAEL B M 34 18.2-57.2|[M] ASSAULT & BATTERY - FAMILY MEMBER 2016009608
7/17/2016 1158 BATTLE, EDDIE JEROME JR B M 36 18.2-57.2|[M] ASSAULT & BATTERY - FAMILY MEMBER 2016009687
7/17/2016 2039 TUCKER, TIMOTHY ONEAL JR B M 32 18.2-119 TRESPASSING 2016009635
7/17/2016 2039 TUCKER, TIMOTHY ONEAL JR B M 32 18.2-95 GRAND LARCENY 2016009635
7/17/2016 2039 TUCKER, TIMOTHY ONEAL JR B M 32 18.2-57.2|[M] ASSAULT & BATTERY - FAMILY MEMBER 2016009635
7/17/2016 2310 WOOD, KEVIN LYNN W M 50 18.2-57.2|[M] ASSAULT & BATTERY - FAMILY MEMBER 2016009645
7/17/2016 2316 NELSON, THEA MARIE W F 33 18.2-456 CONTEMPT OF COURT
7/17/2016 2344 WOOD, KYLE LOGAN W M 21 18.2-57.2|[M] ASSAULT & BATTERY - FAMILY MEMBER 2016009645
7/17/2016 3:49:00 AM 0349 FLUKER, SHAWN GIOVANNI B M 28 24-253 ALCOHOL - OPEN CONTAINER OF AN ALCOHOLIC BEVERAGE IN ANY PUB 2016009602
7/17/2016 3:49:00 AM 0349 FLUKER, SHAWN GIOVANNI B M 28 18.2-250.1 POSSESSION OF MARIJUANA 2016009602
7/17/2016 11:50:00 AM 1150 BERRY, HOLLY JEAN W F 29 18.2-105.2 MANUF, SALE -DEVICES THAT SHIELD SHOPLIFT DETECT 2016009622
7/17/2016 1:00:00 PM 1300 JOYNER, FLOYD LEE B M 56 18.2-119 TRESPASSING 2016009625
7/17/2016 9:40:00 PM 2140 CANADY, JAMES JOSEPH W M 24 18.2-386.2 UNLAWFUL DISSEMINATION OF IMAGE
7/18/2016 0010 EURE, TIQ`UAN DERON B M 23 18.2-102|[F] UNAUTHORIZED USE OF VEHICLE, BOAT OR ANIMAL 2016008921
7/18/2016 0037 JOHNSON, WILLIAM DOUGLAS B M 62 24-258 PUBLIC DRUNKENNESS 2016009657
7/18/2016 0056 FARREN, JASON KEVIN W M 40 18.2-57.2|[F] ASSAULT & BATTERY - FAMILY MEMBER (3RD OFFENSE) 2016009650
7/18/2016 0122 GARLAND, TEON DELVON B M 31 18.2-456 CONTEMPT OF COURT 2016009659
7/18/2016 0202 SCOTT, QUANESHA SHATORIA B F 30 18.2-57|[M] ASSAULT & BATTERY 2016009658
7/18/2016 0246 FLEETWOOD, TARNISHA SHARAE DENISE B F 21 18.2-172 FORGING, UTTERING 2015010549
7/18/2016 0246 FLEETWOOD, TARNISHA SHARAE DENISE B F 21 18.2-172 FORGING, UTTERING 2015010549
7/18/2016 0246 FLEETWOOD, TARNISHA SHARAE DENISE B F 21 18.2-172 FORGING, UTTERING 2015010549
7/18/2016 0246 FLEETWOOD, TARNISHA SHARAE DENISE B F 21 18.2-172 FORGING, UTTERING 2015010549
7/18/2016 0246 FLEETWOOD, TARNISHA SHARAE DENISE B F 21 18.2-98|[F] LARCENY OF BANK NOTES, CHECKS 2015010549
7/18/2016 0246 FLEETWOOD, TARNISHA SHARAE DENISE B F 21 18.2-178|[F] OBTAINING MONEY BY FALSE PRETENSES 2015010549
7/18/2016 0246 FLEETWOOD, TARNISHA SHARAE DENISE B F 21 18.2-178|[F] OBTAINING MONEY BY FALSE PRETENSES 2015010549
7/18/2016 0915 HINES, STEVEN LAMONT B M 35 18.2-250|[F] POSSESSION OF CONTROLLED SUBSTANCES 2016009660
7/18/2016 0915 HINES, STEVEN LAMONT B M 35 18.2-250|[F] POSSESSION OF CONTROLLED SUBSTANCES 2016009660
7/18/2016 0915 HINES, STEVEN LAMONT B M 35 18.2-250.1 POSSESSION OF MARIJUANA 2016009660
7/18/2016 0945 WARD, RONDELL JAVARIUS B M 23 18.2-57|[M] ASSAULT & BATTERY
7/18/2016 0945 WARD, RONDELL JAVARIUS B M 23 18.2-137|[M] DESTRUCTION OF PROPERTY, GENERAL
7/18/2016 1005 THOMPSON, CURTIS SAMUEL W M 32 18.2-250|[F] POSSESSION OF CONTROLLED SUBSTANCES 2016009660
7/18/2016 1021 PULLIAM, JAMES ANTHONY W M 33 19.2-128|[F] FAIL TO APPEAR ON FELONY CHARGE
7/18/2016 1021 PULLIAM, JAMES ANTHONY W M 33 19.2-128|[F] FAIL TO APPEAR ON FELONY CHARGE
7/18/2016 1021 PULLIAM, JAMES ANTHONY W M 33 18.2-250|[F] POSSESSION OF CONTROLLED SUBSTANCES 2016009660
7/18/2016 1030 ASKEW, GERRY CARLTON JR B M 34 18.2-456 CONTEMPT OF COURT
7/18/2016 1030 ASKEW, GERRY CARLTON JR B M 34 18.2-95 GRAND LARCENY
7/18/2016 1100 REYNOLDS, DARRON RAY II W M 39 18.2-456 CONTEMPT OF COURT
7/18/2016 1111 GRAHAM, JOHN B M 18 18.2-57|[M] ASSAULT & BATTERY
7/18/2016 1126 MCCARTY, JOHN ANTHONY W M 31 18.2-250|[F] POSSESSION OF CONTROLLED SUBSTANCES 2016009660
7/18/2016 1126 MCCARTY, JOHN ANTHONY W M 31 18.2-250|[F] POSSESSION OF CONTROLLED SUBSTANCES 2016009660
7/18/2016 1208 BULLOCK, TAQUISHA NISHAE B F 24 19.2-152.4:1[M] REVOCATION OF PRETRIAL RELEASE
7/18/2016 1341 HOWARD, DEMARCUS DEONTRE B M 21 18.2-456 CONTEMPT OF COURT
7/18/2016 1405 HILL, KELVIN TYWAIN B M 38 18.2-456 CONTEMPT OF COURT
7/18/2016 1622 DAVIS, JEROME B M 50 24-262 AGGRESSIVE PANHANDLING
7/18/2016 1638 ALEXANDER, CHRISTINA MARIE W F 44 18.2-95 GRAND LARCENY 2016009667
7/18/2016 1638 ALEXANDER, CHRISTINA MARIE W F 44 18.2-108.01 STOLEN PROPERTY: W/ INTENT TO SELL, LARCENY>$200 2016009667
7/18/2016 1638 ALEXANDER, CHRISTINA MARIE W F 44 18.2-22 CONSPIRACY TO COMMIT FELONY 2016009667
7/18/2016 1638 ALEXANDER, CHRISTINA MARIE W F 44 18.2-178|[M] OBTAINING MONEY BY FALSE PRETENSES 2016009667
7/18/2016 1704 JONES, DESHAWN LAMAR B M 25 18.2-456 CONTEMPT OF COURT
7/18/2016 1708 JONES, DARION ALEXANDRE B M 19 18.2-456 CONTEMPT OF COURT
7/18/2016 1816 AUSTIN, CYNTHIA DENISE B F 49 18.2-456 CONTEMPT OF COURT
7/18/2016 1816 AUSTIN, CYNTHIA DENISE B F 49 18.2-456 CONTEMPT OF COURT
7/18/2016 1902 FLANAGAN, ROBERT SCOTT W M 54 18.2-57.2|[M] ASSAULT & BATTERY - FAMILY MEMBER 2016009695
7/18/2016 1935 WOOD, MICHAEL BENJAMIN W M 45 18.2-388 PUBLIC SWEARING OR INTOXICATION 2016009705
7/18/2016 2252 TAYLOR, ERNESTINE B F 57 18.2-57.2|[M] ASSAULT & BATTERY - FAMILY MEMBER 2016009712
7/18/2016 10:13:00 AM 1013 DARDEN, AUDREY ELLE B F 71 18.2-57|[M] ASSAULT & BATTERY
7/19/2016 0041 SIMPSON, KRISTEN RENEE B F 29 19.2-152.10 PROTECTIVE ORDER 2016009382
7/19/2016 0041 SIMPSON, KRISTEN RENEE B F 29 18.2-51.2 AGGRAVATED MALICIOUS WOUNDING 2016009382
7/19/2016 0121 GREEN, MARGARET DUFF W F 44 18.2-57|[M] ASSAULT & BATTERY 2016008679
7/19/2016 0207 ANDERSON, LADARIUS DEVON B M 30 18.2-388 PUBLIC SWEARING OR INTOXICATION
7/19/2016 0224 VAZQUEZ, CHERYL TOWANDA B F 52 18.2-250|[F] POSSESSION OF CONTROLLED SUBSTANCES 2016009718
7/19/2016 0320 FULLERTON, CHARLES EUGENE III W M 60 18.2-57.2|[M] ASSAULT & BATTERY - FAMILY MEMBER 2016009716
7/19/2016 0628 HARRIS, KYLE MICHAEL W M 28 1-200 COMMON LAW 2016009725
7/19/2016 0628 HARRIS, KYLE MICHAEL W M 28 1-200 COMMON LAW 2016009725
7/19/2016 0628 HARRIS, KYLE MICHAEL W M 28 18.2-415 DISORDERLY CONDUCT 2016009725
7/19/2016 1031 REARDON, KELLY LOUISE W F 38 19.2-99|[M] FUGITIVE FROM JUSTICE
7/19/2016 1235 TERRELL, DWAYNE YARNELL B M 24 18.2-456 CONTEMPT OF COURT
7/19/2016 1357 WHITE, BERNADINE B F 53 19.2-152.4:1[M] REVOCATION OF PRETRIAL RELEASE
7/19/2016 1628 SCHMIDBAUER, VICTOR DAVID W M 34 16.1-279.1 PROTECTIVE ORDER IN CASES OF FAMILY ABUS
7/19/2016 1628 SCHMIDBAUER, VICTOR DAVID W M 34 18.2-57.2|[M] ASSAULT & BATTERY - FAMILY MEMBER 2016009612
7/19/2016 1628 SCHMIDBAUER, VICTOR DAVID W M 34 18.2-57.2|[M] ASSAULT & BATTERY - FAMILY MEMBER 2016009697
7/19/2016 1628 SCHMIDBAUER, VICTOR DAVID W M 34 16.1-279.1 PROTECTIVE ORDER IN CASES OF FAMILY ABUS
7/19/2016 1750 HARTLEY, AARON LEE W M 40 19.2-306|[F] REVOCATION OF SUSPENDED SENTENCE AND PROBATION
7/19/2016 1750 HARTLEY, AARON LEE W M 40 19.2-306|[F] REVOCATION OF SUSPENDED SENTENCE AND PROBATION
7/19/2016 1750 HARTLEY, AARON LEE W M 40 19.2-306|[F] REVOCATION OF SUSPENDED SENTENCE AND PROBATION
7/19/2016 1750 HARTLEY, AARON LEE W M 40 19.2-306|[F] REVOCATION OF SUSPENDED SENTENCE AND PROBATION
7/19/2016 1750 HARTLEY, AARON LEE W M 40 19.2-306|[F] REVOCATION OF SUSPENDED SENTENCE AND PROBATION
7/19/2016 1750 HARTLEY, AARON LEE W M 40 19.2-306|[F] REVOCATION OF SUSPENDED SENTENCE AND PROBATION
7/19/2016 1750 HARTLEY, AARON LEE W M 40 19.2-306|[F] REVOCATION OF SUSPENDED SENTENCE AND PROBATION
7/19/2016 1750 HARTLEY, AARON LEE W M 40 19.2-306|[F] REVOCATION OF SUSPENDED SENTENCE AND PROBATION
7/19/2016 1750 HARTLEY, AARON LEE W M 40 19.2-306|[F] REVOCATION OF SUSPENDED SENTENCE AND PROBATION
7/19/2016 1750 HARTLEY, AARON LEE W M 40 19.2-306|[F] REVOCATION OF SUSPENDED SENTENCE AND PROBATION
7/19/2016 1909 WALKER, TRINITY MATEO B M 42 18.2-248|[F] MANUF, SALE, POSSESSION CONTROLLED SUBSTANCE 2016009760
7/19/2016 2145 HOUSTON, AARON DEMETRIUS B M 41 18.2-137|[M] DESTRUCTION OF PROPERTY, GENERAL 2016009746
7/19/2016 2145 HOUSTON, AARON DEMETRIUS B M 41 46.2-301 DRIVING W/SUSPENDED OR REVOKED LICENSE 2016009746
7/19/2016 2145 HOUSTON, AARON DEMETRIUS B M 41 46.2-896 HIT & RUN - UNATTENDED VEH 2016009746
7/19/2016 2145 HOUSTON, AARON DEMETRIUS B M 41 18.2-103|[M] CONCEALMENT, PRICE ALTER MERCHANDISE <$200 7777238699
7/19/2016 2201 EATON, DEREK ROSS W M 30 18.2-248|[F] MANUF, SALE, POSSESSION CONTROLLED SUBSTANCE 2016009771
7/19/2016 9:00:00 AM 0900 WHITFIELD, KENDRA MICHELLE B